<?xml version="1.0" encoding="UTF-8" standalone="no" ?>
<gpx xmlns="http://www.topografix.com/GPX/1/1" xmlns:xsi="http://www.w3.org/2001/XMLSchema-instance" xsi:schemaLocation="http://www.topografix.com/GPX/1/1 http://www.topografix.com/GPX/1/1/gpx.xsd" version="1.1" creator="VisuGPX - https://www.visugpx.com">
  <metadata>
    <name>TA24 à Passy</name>
    <desc><![CDATA[Trace AlpineQuest 04/09/2021 15:20:13]]></desc>
  </metadata>
  <trk>
    <name><![CDATA[TA24 à Passy_1]]></name>
    <trkseg>
      <trkpt lat="46.53784" lon="4.53365">
        <ele>278.6</ele>
        <time>2021-09-04T13:20:13Z</time>
      </trkpt>
      <trkpt lat="46.53783" lon="4.53365">
        <ele>269.6</ele>
        <time>2021-09-04T13:20:16Z</time>
      </trkpt>
      <trkpt lat="46.53776" lon="4.53371">
        <ele>267.6</ele>
        <time>2021-09-04T13:20:21Z</time>
      </trkpt>
      <trkpt lat="46.53781" lon="4.5336">
        <ele>263.6</ele>
        <time>2021-09-04T13:20:36Z</time>
      </trkpt>
      <trkpt lat="46.53786" lon="4.53371">
        <ele>259.6</ele>
        <time>2021-09-04T13:20:41Z</time>
      </trkpt>
      <trkpt lat="46.53781" lon="4.53364">
        <ele>257.6</ele>
        <time>2021-09-04T13:21:18Z</time>
      </trkpt>
      <trkpt lat="46.53781" lon="4.53353">
        <ele>255.6</ele>
        <time>2021-09-04T13:21:32Z</time>
      </trkpt>
      <trkpt lat="46.53776" lon="4.53349">
        <ele>241.6</ele>
        <time>2021-09-04T13:23:00Z</time>
      </trkpt>
      <trkpt lat="46.53772" lon="4.53341">
        <ele>241.6</ele>
        <time>2021-09-04T13:25:31Z</time>
      </trkpt>
      <trkpt lat="46.53778" lon="4.53337">
        <ele>241.6</ele>
        <time>2021-09-04T13:25:49Z</time>
      </trkpt>
      <trkpt lat="46.53786" lon="4.5334">
        <ele>240.6</ele>
        <time>2021-09-04T13:25:57Z</time>
      </trkpt>
      <trkpt lat="46.53792" lon="4.53343">
        <ele>244.6</ele>
        <time>2021-09-04T13:26:21Z</time>
      </trkpt>
      <trkpt lat="46.53799" lon="4.53346">
        <ele>241.6</ele>
        <time>2021-09-04T13:26:39Z</time>
      </trkpt>
      <trkpt lat="46.53805" lon="4.53352">
        <ele>237.6</ele>
        <time>2021-09-04T13:27:00Z</time>
      </trkpt>
      <trkpt lat="46.53811" lon="4.53357">
        <ele>236.6</ele>
        <time>2021-09-04T13:27:09Z</time>
      </trkpt>
      <trkpt lat="46.53817" lon="4.53362">
        <ele>237.6</ele>
        <time>2021-09-04T13:27:15Z</time>
      </trkpt>
      <trkpt lat="46.53824" lon="4.53366">
        <ele>242.6</ele>
        <time>2021-09-04T13:27:22Z</time>
      </trkpt>
      <trkpt lat="46.5383" lon="4.53371">
        <ele>242.6</ele>
        <time>2021-09-04T13:27:30Z</time>
      </trkpt>
      <trkpt lat="46.53836" lon="4.53375">
        <ele>240.601</ele>
        <time>2021-09-04T13:27:37Z</time>
      </trkpt>
      <trkpt lat="46.53843" lon="4.53376">
        <ele>240.601</ele>
        <time>2021-09-04T13:27:44Z</time>
      </trkpt>
      <trkpt lat="46.5385" lon="4.53382">
        <ele>240.601</ele>
        <time>2021-09-04T13:27:51Z</time>
      </trkpt>
      <trkpt lat="46.53857" lon="4.53375">
        <ele>239.601</ele>
        <time>2021-09-04T13:28:00Z</time>
      </trkpt>
      <trkpt lat="46.53861" lon="4.53386">
        <ele>239.601</ele>
        <time>2021-09-04T13:28:05Z</time>
      </trkpt>
      <trkpt lat="46.53868" lon="4.5339">
        <ele>240.601</ele>
        <time>2021-09-04T13:28:11Z</time>
      </trkpt>
      <trkpt lat="46.53874" lon="4.53397">
        <ele>240.601</ele>
        <time>2021-09-04T13:28:16Z</time>
      </trkpt>
      <trkpt lat="46.5388" lon="4.53404">
        <ele>236.601</ele>
        <time>2021-09-04T13:28:24Z</time>
      </trkpt>
      <trkpt lat="46.53887" lon="4.53405">
        <ele>237.601</ele>
        <time>2021-09-04T13:28:31Z</time>
      </trkpt>
      <trkpt lat="46.53893" lon="4.53401">
        <ele>236.601</ele>
        <time>2021-09-04T13:28:45Z</time>
      </trkpt>
      <trkpt lat="46.539" lon="4.53404">
        <ele>236.601</ele>
        <time>2021-09-04T13:28:50Z</time>
      </trkpt>
      <trkpt lat="46.53907" lon="4.5341">
        <ele>239.601</ele>
        <time>2021-09-04T13:28:56Z</time>
      </trkpt>
      <trkpt lat="46.53914" lon="4.53412">
        <ele>239.601</ele>
        <time>2021-09-04T13:29:01Z</time>
      </trkpt>
      <trkpt lat="46.53921" lon="4.53418">
        <ele>241.601</ele>
        <time>2021-09-04T13:29:09Z</time>
      </trkpt>
      <trkpt lat="46.53928" lon="4.5342">
        <ele>243.601</ele>
        <time>2021-09-04T13:29:14Z</time>
      </trkpt>
      <trkpt lat="46.53935" lon="4.53423">
        <ele>246.601</ele>
        <time>2021-09-04T13:29:19Z</time>
      </trkpt>
      <trkpt lat="46.53943" lon="4.53429">
        <ele>246.601</ele>
        <time>2021-09-04T13:29:28Z</time>
      </trkpt>
      <trkpt lat="46.5395" lon="4.53433">
        <ele>245.601</ele>
        <time>2021-09-04T13:29:34Z</time>
      </trkpt>
      <trkpt lat="46.53957" lon="4.53436">
        <ele>241.601</ele>
        <time>2021-09-04T13:29:42Z</time>
      </trkpt>
      <trkpt lat="46.53963" lon="4.53443">
        <ele>240.601</ele>
        <time>2021-09-04T13:29:51Z</time>
      </trkpt>
      <trkpt lat="46.53964" lon="4.53453">
        <ele>237.601</ele>
        <time>2021-09-04T13:30:00Z</time>
      </trkpt>
      <trkpt lat="46.53962" lon="4.53463">
        <ele>238.601</ele>
        <time>2021-09-04T13:30:07Z</time>
      </trkpt>
      <trkpt lat="46.53958" lon="4.53471">
        <ele>239.601</ele>
        <time>2021-09-04T13:30:13Z</time>
      </trkpt>
      <trkpt lat="46.53955" lon="4.53481">
        <ele>237.601</ele>
        <time>2021-09-04T13:30:20Z</time>
      </trkpt>
      <trkpt lat="46.5395" lon="4.53489">
        <ele>238.601</ele>
        <time>2021-09-04T13:30:26Z</time>
      </trkpt>
      <trkpt lat="46.53947" lon="4.53498">
        <ele>238.601</ele>
        <time>2021-09-04T13:30:31Z</time>
      </trkpt>
      <trkpt lat="46.53945" lon="4.53507">
        <ele>238.601</ele>
        <time>2021-09-04T13:30:40Z</time>
      </trkpt>
      <trkpt lat="46.53942" lon="4.53516">
        <ele>235.601</ele>
        <time>2021-09-04T13:30:47Z</time>
      </trkpt>
      <trkpt lat="46.53938" lon="4.53525">
        <ele>232.601</ele>
        <time>2021-09-04T13:30:54Z</time>
      </trkpt>
      <trkpt lat="46.53932" lon="4.5353">
        <ele>230.601</ele>
        <time>2021-09-04T13:31:03Z</time>
      </trkpt>
      <trkpt lat="46.53926" lon="4.53534">
        <ele>229.601</ele>
        <time>2021-09-04T13:31:10Z</time>
      </trkpt>
      <trkpt lat="46.5392" lon="4.53538">
        <ele>232.601</ele>
        <time>2021-09-04T13:31:18Z</time>
      </trkpt>
      <trkpt lat="46.53913" lon="4.53539">
        <ele>232.601</ele>
        <time>2021-09-04T13:31:23Z</time>
      </trkpt>
      <trkpt lat="46.53907" lon="4.53542">
        <ele>234.601</ele>
        <time>2021-09-04T13:31:28Z</time>
      </trkpt>
      <trkpt lat="46.53901" lon="4.53547">
        <ele>233.601</ele>
        <time>2021-09-04T13:31:34Z</time>
      </trkpt>
      <trkpt lat="46.53894" lon="4.53551">
        <ele>234.601</ele>
        <time>2021-09-04T13:31:39Z</time>
      </trkpt>
      <trkpt lat="46.53888" lon="4.53554">
        <ele>234.601</ele>
        <time>2021-09-04T13:31:44Z</time>
      </trkpt>
      <trkpt lat="46.53884" lon="4.53562">
        <ele>232.601</ele>
        <time>2021-09-04T13:31:53Z</time>
      </trkpt>
      <trkpt lat="46.53878" lon="4.53568">
        <ele>230.601</ele>
        <time>2021-09-04T13:32:01Z</time>
      </trkpt>
      <trkpt lat="46.53871" lon="4.53572">
        <ele>229.601</ele>
        <time>2021-09-04T13:32:06Z</time>
      </trkpt>
      <trkpt lat="46.53865" lon="4.53578">
        <ele>226.601</ele>
        <time>2021-09-04T13:32:15Z</time>
      </trkpt>
      <trkpt lat="46.53857" lon="4.53577">
        <ele>228.601</ele>
        <time>2021-09-04T13:32:24Z</time>
      </trkpt>
      <trkpt lat="46.5385" lon="4.53578">
        <ele>231.601</ele>
        <time>2021-09-04T13:32:31Z</time>
      </trkpt>
      <trkpt lat="46.53843" lon="4.53577">
        <ele>229.601</ele>
        <time>2021-09-04T13:32:39Z</time>
      </trkpt>
      <trkpt lat="46.53836" lon="4.53576">
        <ele>228.601</ele>
        <time>2021-09-04T13:32:44Z</time>
      </trkpt>
      <trkpt lat="46.53829" lon="4.53577">
        <ele>229.601</ele>
        <time>2021-09-04T13:32:50Z</time>
      </trkpt>
      <trkpt lat="46.53822" lon="4.5358">
        <ele>228.601</ele>
        <time>2021-09-04T13:32:58Z</time>
      </trkpt>
      <trkpt lat="46.53817" lon="4.53586">
        <ele>232.601</ele>
        <time>2021-09-04T13:33:08Z</time>
      </trkpt>
      <trkpt lat="46.5381" lon="4.53589">
        <ele>232.601</ele>
        <time>2021-09-04T13:33:14Z</time>
      </trkpt>
      <trkpt lat="46.53805" lon="4.53595">
        <ele>232.601</ele>
        <time>2021-09-04T13:33:21Z</time>
      </trkpt>
      <trkpt lat="46.53801" lon="4.53604">
        <ele>235.601</ele>
        <time>2021-09-04T13:33:30Z</time>
      </trkpt>
      <trkpt lat="46.53797" lon="4.53613">
        <ele>236.601</ele>
        <time>2021-09-04T13:33:36Z</time>
      </trkpt>
      <trkpt lat="46.53795" lon="4.53623">
        <ele>240.601</ele>
        <time>2021-09-04T13:33:43Z</time>
      </trkpt>
      <trkpt lat="46.53791" lon="4.53631">
        <ele>239.601</ele>
        <time>2021-09-04T13:33:50Z</time>
      </trkpt>
      <trkpt lat="46.53789" lon="4.5364">
        <ele>239.601</ele>
        <time>2021-09-04T13:33:57Z</time>
      </trkpt>
      <trkpt lat="46.53784" lon="4.53648">
        <ele>239.601</ele>
        <time>2021-09-04T13:34:03Z</time>
      </trkpt>
      <trkpt lat="46.53779" lon="4.53657">
        <ele>236.601</ele>
        <time>2021-09-04T13:34:10Z</time>
      </trkpt>
      <trkpt lat="46.53773" lon="4.53661">
        <ele>234.601</ele>
        <time>2021-09-04T13:34:19Z</time>
      </trkpt>
      <trkpt lat="46.5377" lon="4.53672">
        <ele>233.601</ele>
        <time>2021-09-04T13:34:26Z</time>
      </trkpt>
      <trkpt lat="46.53765" lon="4.53678">
        <ele>234.601</ele>
        <time>2021-09-04T13:34:32Z</time>
      </trkpt>
      <trkpt lat="46.53759" lon="4.53685">
        <ele>235.601</ele>
        <time>2021-09-04T13:34:38Z</time>
      </trkpt>
      <trkpt lat="46.53752" lon="4.5369">
        <ele>235.601</ele>
        <time>2021-09-04T13:34:46Z</time>
      </trkpt>
      <trkpt lat="46.53746" lon="4.53694">
        <ele>234.601</ele>
        <time>2021-09-04T13:34:53Z</time>
      </trkpt>
      <trkpt lat="46.53738" lon="4.53696">
        <ele>235.6</ele>
        <time>2021-09-04T13:34:59Z</time>
      </trkpt>
      <trkpt lat="46.53731" lon="4.537">
        <ele>235.6</ele>
        <time>2021-09-04T13:35:05Z</time>
      </trkpt>
      <trkpt lat="46.53724" lon="4.537">
        <ele>234.6</ele>
        <time>2021-09-04T13:35:10Z</time>
      </trkpt>
      <trkpt lat="46.53718" lon="4.537">
        <ele>231.6</ele>
        <time>2021-09-04T13:35:17Z</time>
      </trkpt>
      <trkpt lat="46.53711" lon="4.53702">
        <ele>229.6</ele>
        <time>2021-09-04T13:35:24Z</time>
      </trkpt>
      <trkpt lat="46.53704" lon="4.53703">
        <ele>229.6</ele>
        <time>2021-09-04T13:35:31Z</time>
      </trkpt>
      <trkpt lat="46.53698" lon="4.53708">
        <ele>229.6</ele>
        <time>2021-09-04T13:35:38Z</time>
      </trkpt>
      <trkpt lat="46.53691" lon="4.53709">
        <ele>231.6</ele>
        <time>2021-09-04T13:35:46Z</time>
      </trkpt>
      <trkpt lat="46.53685" lon="4.53703">
        <ele>237.6</ele>
        <time>2021-09-04T13:36:02Z</time>
      </trkpt>
      <trkpt lat="46.53678" lon="4.53703">
        <ele>236.6</ele>
        <time>2021-09-04T13:36:07Z</time>
      </trkpt>
      <trkpt lat="46.5367" lon="4.53704">
        <ele>236.6</ele>
        <time>2021-09-04T13:36:13Z</time>
      </trkpt>
      <trkpt lat="46.53662" lon="4.537">
        <ele>236.6</ele>
        <time>2021-09-04T13:36:21Z</time>
      </trkpt>
      <trkpt lat="46.53656" lon="4.53696">
        <ele>237.6</ele>
        <time>2021-09-04T13:36:28Z</time>
      </trkpt>
      <trkpt lat="46.5365" lon="4.53691">
        <ele>239.6</ele>
        <time>2021-09-04T13:36:36Z</time>
      </trkpt>
      <trkpt lat="46.53644" lon="4.53688">
        <ele>243.6</ele>
        <time>2021-09-04T13:36:42Z</time>
      </trkpt>
      <trkpt lat="46.53637" lon="4.53686">
        <ele>243.6</ele>
        <time>2021-09-04T13:36:48Z</time>
      </trkpt>
      <trkpt lat="46.53631" lon="4.5368">
        <ele>244.6</ele>
        <time>2021-09-04T13:36:54Z</time>
      </trkpt>
      <trkpt lat="46.53624" lon="4.53676">
        <ele>243.6</ele>
        <time>2021-09-04T13:37:01Z</time>
      </trkpt>
      <trkpt lat="46.53617" lon="4.53675">
        <ele>242.6</ele>
        <time>2021-09-04T13:37:08Z</time>
      </trkpt>
      <trkpt lat="46.5361" lon="4.53678">
        <ele>241.6</ele>
        <time>2021-09-04T13:37:15Z</time>
      </trkpt>
      <trkpt lat="46.53603" lon="4.53675">
        <ele>242.6</ele>
        <time>2021-09-04T13:37:22Z</time>
      </trkpt>
      <trkpt lat="46.53595" lon="4.53675">
        <ele>241.6</ele>
        <time>2021-09-04T13:37:31Z</time>
      </trkpt>
      <trkpt lat="46.53588" lon="4.53669">
        <ele>242.6</ele>
        <time>2021-09-04T13:37:37Z</time>
      </trkpt>
      <trkpt lat="46.53582" lon="4.53666">
        <ele>243.6</ele>
        <time>2021-09-04T13:37:42Z</time>
      </trkpt>
      <trkpt lat="46.53576" lon="4.53661">
        <ele>246.6</ele>
        <time>2021-09-04T13:37:49Z</time>
      </trkpt>
      <trkpt lat="46.53569" lon="4.53657">
        <ele>248.6</ele>
        <time>2021-09-04T13:37:54Z</time>
      </trkpt>
      <trkpt lat="46.53564" lon="4.53652">
        <ele>250.6</ele>
        <time>2021-09-04T13:38:15Z</time>
      </trkpt>
      <trkpt lat="46.53557" lon="4.53648">
        <ele>248.6</ele>
        <time>2021-09-04T13:38:23Z</time>
      </trkpt>
      <trkpt lat="46.53551" lon="4.53644">
        <ele>248.6</ele>
        <time>2021-09-04T13:38:31Z</time>
      </trkpt>
      <trkpt lat="46.53544" lon="4.53642">
        <ele>248.6</ele>
        <time>2021-09-04T13:38:39Z</time>
      </trkpt>
      <trkpt lat="46.53538" lon="4.53637">
        <ele>249.6</ele>
        <time>2021-09-04T13:38:45Z</time>
      </trkpt>
      <trkpt lat="46.53532" lon="4.53634">
        <ele>246.6</ele>
        <time>2021-09-04T13:38:52Z</time>
      </trkpt>
      <trkpt lat="46.53526" lon="4.53632">
        <ele>244.6</ele>
        <time>2021-09-04T13:38:58Z</time>
      </trkpt>
      <trkpt lat="46.53519" lon="4.53632">
        <ele>241.6</ele>
        <time>2021-09-04T13:39:04Z</time>
      </trkpt>
      <trkpt lat="46.53512" lon="4.5363">
        <ele>242.6</ele>
        <time>2021-09-04T13:39:11Z</time>
      </trkpt>
      <trkpt lat="46.53507" lon="4.53621">
        <ele>248.6</ele>
        <time>2021-09-04T13:39:16Z</time>
      </trkpt>
      <trkpt lat="46.535" lon="4.53617">
        <ele>251.6</ele>
        <time>2021-09-04T13:39:23Z</time>
      </trkpt>
      <trkpt lat="46.53497" lon="4.5363">
        <ele>241.6</ele>
        <time>2021-09-04T13:39:28Z</time>
      </trkpt>
      <trkpt lat="46.53491" lon="4.53624">
        <ele>243.6</ele>
        <time>2021-09-04T13:39:35Z</time>
      </trkpt>
      <trkpt lat="46.53486" lon="4.53617">
        <ele>243.6</ele>
        <time>2021-09-04T13:39:41Z</time>
      </trkpt>
      <trkpt lat="46.5348" lon="4.53611">
        <ele>246.6</ele>
        <time>2021-09-04T13:39:46Z</time>
      </trkpt>
      <trkpt lat="46.53474" lon="4.53604">
        <ele>248.6</ele>
        <time>2021-09-04T13:39:52Z</time>
      </trkpt>
      <trkpt lat="46.53467" lon="4.53603">
        <ele>250.6</ele>
        <time>2021-09-04T13:39:58Z</time>
      </trkpt>
      <trkpt lat="46.5346" lon="4.53605">
        <ele>252.6</ele>
        <time>2021-09-04T13:40:05Z</time>
      </trkpt>
      <trkpt lat="46.53454" lon="4.53601">
        <ele>253.6</ele>
        <time>2021-09-04T13:40:13Z</time>
      </trkpt>
      <trkpt lat="46.53447" lon="4.53599">
        <ele>254.6</ele>
        <time>2021-09-04T13:40:19Z</time>
      </trkpt>
      <trkpt lat="46.53441" lon="4.53594">
        <ele>254.6</ele>
        <time>2021-09-04T13:40:26Z</time>
      </trkpt>
      <trkpt lat="46.53433" lon="4.53589">
        <ele>253.6</ele>
        <time>2021-09-04T13:40:32Z</time>
      </trkpt>
      <trkpt lat="46.53428" lon="4.53585">
        <ele>254.6</ele>
        <time>2021-09-04T13:40:38Z</time>
      </trkpt>
      <trkpt lat="46.53422" lon="4.53579">
        <ele>254.6</ele>
        <time>2021-09-04T13:40:44Z</time>
      </trkpt>
      <trkpt lat="46.53415" lon="4.53573">
        <ele>253.6</ele>
        <time>2021-09-04T13:40:50Z</time>
      </trkpt>
      <trkpt lat="46.5341" lon="4.53567">
        <ele>254.599</ele>
        <time>2021-09-04T13:40:55Z</time>
      </trkpt>
      <trkpt lat="46.53404" lon="4.53561">
        <ele>253.599</ele>
        <time>2021-09-04T13:41:02Z</time>
      </trkpt>
      <trkpt lat="46.53399" lon="4.53555">
        <ele>251.599</ele>
        <time>2021-09-04T13:41:08Z</time>
      </trkpt>
      <trkpt lat="46.53393" lon="4.53551">
        <ele>248.599</ele>
        <time>2021-09-04T13:41:14Z</time>
      </trkpt>
      <trkpt lat="46.53387" lon="4.53547">
        <ele>251.599</ele>
        <time>2021-09-04T13:41:21Z</time>
      </trkpt>
      <trkpt lat="46.5338" lon="4.53544">
        <ele>248.599</ele>
        <time>2021-09-04T13:41:29Z</time>
      </trkpt>
      <trkpt lat="46.53373" lon="4.53539">
        <ele>246.599</ele>
        <time>2021-09-04T13:41:35Z</time>
      </trkpt>
      <trkpt lat="46.53368" lon="4.53533">
        <ele>249.599</ele>
        <time>2021-09-04T13:41:40Z</time>
      </trkpt>
      <trkpt lat="46.53362" lon="4.53528">
        <ele>250.599</ele>
        <time>2021-09-04T13:41:47Z</time>
      </trkpt>
      <trkpt lat="46.53355" lon="4.53525">
        <ele>249.599</ele>
        <time>2021-09-04T13:41:53Z</time>
      </trkpt>
      <trkpt lat="46.53348" lon="4.53526">
        <ele>249.599</ele>
        <time>2021-09-04T13:42:01Z</time>
      </trkpt>
      <trkpt lat="46.53343" lon="4.53532">
        <ele>245.599</ele>
        <time>2021-09-04T13:42:08Z</time>
      </trkpt>
      <trkpt lat="46.53335" lon="4.53534">
        <ele>242.599</ele>
        <time>2021-09-04T13:42:18Z</time>
      </trkpt>
      <trkpt lat="46.53328" lon="4.53536">
        <ele>243.599</ele>
        <time>2021-09-04T13:42:24Z</time>
      </trkpt>
      <trkpt lat="46.53321" lon="4.53537">
        <ele>245.599</ele>
        <time>2021-09-04T13:42:35Z</time>
      </trkpt>
      <trkpt lat="46.53314" lon="4.5354">
        <ele>244.599</ele>
        <time>2021-09-04T13:42:43Z</time>
      </trkpt>
      <trkpt lat="46.53308" lon="4.53543">
        <ele>243.599</ele>
        <time>2021-09-04T13:42:49Z</time>
      </trkpt>
      <trkpt lat="46.53301" lon="4.53546">
        <ele>245.599</ele>
        <time>2021-09-04T13:42:56Z</time>
      </trkpt>
      <trkpt lat="46.53293" lon="4.5355">
        <ele>247.599</ele>
        <time>2021-09-04T13:43:04Z</time>
      </trkpt>
      <trkpt lat="46.53288" lon="4.53556">
        <ele>247.599</ele>
        <time>2021-09-04T13:43:11Z</time>
      </trkpt>
      <trkpt lat="46.53282" lon="4.53561">
        <ele>249.599</ele>
        <time>2021-09-04T13:43:18Z</time>
      </trkpt>
      <trkpt lat="46.53276" lon="4.53566">
        <ele>250.599</ele>
        <time>2021-09-04T13:43:26Z</time>
      </trkpt>
      <trkpt lat="46.5327" lon="4.5357">
        <ele>250.599</ele>
        <time>2021-09-04T13:43:33Z</time>
      </trkpt>
      <trkpt lat="46.53263" lon="4.53574">
        <ele>249.599</ele>
        <time>2021-09-04T13:43:40Z</time>
      </trkpt>
      <trkpt lat="46.53256" lon="4.53573">
        <ele>251.599</ele>
        <time>2021-09-04T13:43:47Z</time>
      </trkpt>
      <trkpt lat="46.5325" lon="4.5358">
        <ele>250.599</ele>
        <time>2021-09-04T13:43:55Z</time>
      </trkpt>
      <trkpt lat="46.53246" lon="4.53588">
        <ele>244.599</ele>
        <time>2021-09-04T13:44:00Z</time>
      </trkpt>
      <trkpt lat="46.53239" lon="4.53589">
        <ele>245.599</ele>
        <time>2021-09-04T13:44:05Z</time>
      </trkpt>
      <trkpt lat="46.53231" lon="4.53587">
        <ele>248.599</ele>
        <time>2021-09-04T13:44:12Z</time>
      </trkpt>
      <trkpt lat="46.53222" lon="4.53588">
        <ele>249.599</ele>
        <time>2021-09-04T13:44:17Z</time>
      </trkpt>
      <trkpt lat="46.53216" lon="4.53591">
        <ele>249.599</ele>
        <time>2021-09-04T13:44:22Z</time>
      </trkpt>
      <trkpt lat="46.5321" lon="4.53586">
        <ele>249.599</ele>
        <time>2021-09-04T13:44:28Z</time>
      </trkpt>
      <trkpt lat="46.53202" lon="4.53585">
        <ele>250.599</ele>
        <time>2021-09-04T13:44:35Z</time>
      </trkpt>
      <trkpt lat="46.53194" lon="4.53585">
        <ele>250.599</ele>
        <time>2021-09-04T13:44:42Z</time>
      </trkpt>
      <trkpt lat="46.53187" lon="4.53585">
        <ele>248.599</ele>
        <time>2021-09-04T13:44:51Z</time>
      </trkpt>
      <trkpt lat="46.53179" lon="4.53582">
        <ele>251.599</ele>
        <time>2021-09-04T13:45:01Z</time>
      </trkpt>
      <trkpt lat="46.53174" lon="4.53576">
        <ele>253.599</ele>
        <time>2021-09-04T13:45:08Z</time>
      </trkpt>
      <trkpt lat="46.53167" lon="4.5357">
        <ele>255.599</ele>
        <time>2021-09-04T13:45:13Z</time>
      </trkpt>
      <trkpt lat="46.53162" lon="4.53563">
        <ele>256.599</ele>
        <time>2021-09-04T13:45:18Z</time>
      </trkpt>
      <trkpt lat="46.53156" lon="4.53555">
        <ele>258.599</ele>
        <time>2021-09-04T13:45:23Z</time>
      </trkpt>
      <trkpt lat="46.5315" lon="4.53549">
        <ele>258.599</ele>
        <time>2021-09-04T13:45:28Z</time>
      </trkpt>
      <trkpt lat="46.53144" lon="4.53543">
        <ele>256.599</ele>
        <time>2021-09-04T13:45:35Z</time>
      </trkpt>
      <trkpt lat="46.53138" lon="4.5354">
        <ele>255.599</ele>
        <time>2021-09-04T13:45:42Z</time>
      </trkpt>
      <trkpt lat="46.53131" lon="4.53537">
        <ele>253.599</ele>
        <time>2021-09-04T13:45:49Z</time>
      </trkpt>
      <trkpt lat="46.53124" lon="4.53535">
        <ele>253.599</ele>
        <time>2021-09-04T13:45:56Z</time>
      </trkpt>
      <trkpt lat="46.53117" lon="4.53537">
        <ele>254.599</ele>
        <time>2021-09-04T13:46:03Z</time>
      </trkpt>
      <trkpt lat="46.5311" lon="4.53536">
        <ele>253.599</ele>
        <time>2021-09-04T13:46:10Z</time>
      </trkpt>
      <trkpt lat="46.53104" lon="4.53534">
        <ele>257.599</ele>
        <time>2021-09-04T13:46:25Z</time>
      </trkpt>
      <trkpt lat="46.53096" lon="4.53535">
        <ele>254.599</ele>
        <time>2021-09-04T13:46:30Z</time>
      </trkpt>
      <trkpt lat="46.5309" lon="4.53532">
        <ele>255.599</ele>
        <time>2021-09-04T13:46:35Z</time>
      </trkpt>
      <trkpt lat="46.53082" lon="4.53531">
        <ele>255.599</ele>
        <time>2021-09-04T13:46:40Z</time>
      </trkpt>
      <trkpt lat="46.53073" lon="4.53534">
        <ele>253.599</ele>
        <time>2021-09-04T13:46:45Z</time>
      </trkpt>
      <trkpt lat="46.53067" lon="4.53535">
        <ele>253.599</ele>
        <time>2021-09-04T13:46:52Z</time>
      </trkpt>
      <trkpt lat="46.5306" lon="4.53533">
        <ele>253.599</ele>
        <time>2021-09-04T13:47:00Z</time>
      </trkpt>
      <trkpt lat="46.53054" lon="4.53529">
        <ele>253.598</ele>
        <time>2021-09-04T13:47:08Z</time>
      </trkpt>
      <trkpt lat="46.53048" lon="4.53528">
        <ele>250.598</ele>
        <time>2021-09-04T13:48:25Z</time>
      </trkpt>
      <trkpt lat="46.53043" lon="4.5352">
        <ele>250.598</ele>
        <time>2021-09-04T13:48:34Z</time>
      </trkpt>
      <trkpt lat="46.53035" lon="4.5352">
        <ele>247.598</ele>
        <time>2021-09-04T13:48:41Z</time>
      </trkpt>
      <trkpt lat="46.53029" lon="4.53519">
        <ele>241.598</ele>
        <time>2021-09-04T13:48:55Z</time>
      </trkpt>
      <trkpt lat="46.53021" lon="4.53521">
        <ele>239.598</ele>
        <time>2021-09-04T13:49:08Z</time>
      </trkpt>
      <trkpt lat="46.53014" lon="4.53526">
        <ele>241.598</ele>
        <time>2021-09-04T13:49:13Z</time>
      </trkpt>
      <trkpt lat="46.53007" lon="4.53529">
        <ele>243.598</ele>
        <time>2021-09-04T13:49:18Z</time>
      </trkpt>
      <trkpt lat="46.52999" lon="4.53534">
        <ele>245.598</ele>
        <time>2021-09-04T13:49:23Z</time>
      </trkpt>
      <trkpt lat="46.52993" lon="4.53538">
        <ele>247.598</ele>
        <time>2021-09-04T13:49:41Z</time>
      </trkpt>
      <trkpt lat="46.52987" lon="4.53533">
        <ele>249.598</ele>
        <time>2021-09-04T13:50:00Z</time>
      </trkpt>
      <trkpt lat="46.52982" lon="4.53539">
        <ele>248.598</ele>
        <time>2021-09-04T13:50:12Z</time>
      </trkpt>
      <trkpt lat="46.52975" lon="4.5354">
        <ele>247.598</ele>
        <time>2021-09-04T13:50:18Z</time>
      </trkpt>
      <trkpt lat="46.52967" lon="4.5354">
        <ele>248.598</ele>
        <time>2021-09-04T13:50:33Z</time>
      </trkpt>
      <trkpt lat="46.52961" lon="4.53542">
        <ele>252.598</ele>
        <time>2021-09-04T13:50:40Z</time>
      </trkpt>
      <trkpt lat="46.52954" lon="4.53544">
        <ele>252.598</ele>
        <time>2021-09-04T13:50:45Z</time>
      </trkpt>
      <trkpt lat="46.52948" lon="4.53547">
        <ele>253.598</ele>
        <time>2021-09-04T13:50:50Z</time>
      </trkpt>
      <trkpt lat="46.52941" lon="4.53549">
        <ele>248.598</ele>
        <time>2021-09-04T13:50:57Z</time>
      </trkpt>
      <trkpt lat="46.52935" lon="4.53545">
        <ele>251.598</ele>
        <time>2021-09-04T13:51:04Z</time>
      </trkpt>
      <trkpt lat="46.52929" lon="4.53541">
        <ele>252.598</ele>
        <time>2021-09-04T13:51:09Z</time>
      </trkpt>
      <trkpt lat="46.52922" lon="4.53537">
        <ele>256.598</ele>
        <time>2021-09-04T13:51:14Z</time>
      </trkpt>
      <trkpt lat="46.52915" lon="4.53532">
        <ele>256.598</ele>
        <time>2021-09-04T13:51:22Z</time>
      </trkpt>
      <trkpt lat="46.52908" lon="4.53531">
        <ele>256.598</ele>
        <time>2021-09-04T13:51:28Z</time>
      </trkpt>
      <trkpt lat="46.52902" lon="4.53528">
        <ele>256.598</ele>
        <time>2021-09-04T13:51:38Z</time>
      </trkpt>
      <trkpt lat="46.52895" lon="4.53526">
        <ele>255.598</ele>
        <time>2021-09-04T13:51:45Z</time>
      </trkpt>
      <trkpt lat="46.52889" lon="4.53521">
        <ele>253.598</ele>
        <time>2021-09-04T13:51:54Z</time>
      </trkpt>
      <trkpt lat="46.52884" lon="4.53514">
        <ele>253.598</ele>
        <time>2021-09-04T13:51:59Z</time>
      </trkpt>
      <trkpt lat="46.52877" lon="4.53511">
        <ele>253.598</ele>
        <time>2021-09-04T13:52:19Z</time>
      </trkpt>
      <trkpt lat="46.5287" lon="4.53511">
        <ele>244.598</ele>
        <time>2021-09-04T13:52:26Z</time>
      </trkpt>
      <trkpt lat="46.52861" lon="4.53511">
        <ele>243.598</ele>
        <time>2021-09-04T13:52:31Z</time>
      </trkpt>
      <trkpt lat="46.52854" lon="4.53507">
        <ele>242.598</ele>
        <time>2021-09-04T13:52:37Z</time>
      </trkpt>
      <trkpt lat="46.52848" lon="4.53501">
        <ele>246.598</ele>
        <time>2021-09-04T13:52:42Z</time>
      </trkpt>
      <trkpt lat="46.52841" lon="4.53497">
        <ele>247.598</ele>
        <time>2021-09-04T13:52:49Z</time>
      </trkpt>
      <trkpt lat="46.52834" lon="4.5349">
        <ele>250.598</ele>
        <time>2021-09-04T13:52:54Z</time>
      </trkpt>
      <trkpt lat="46.52826" lon="4.53483">
        <ele>254.598</ele>
        <time>2021-09-04T13:52:59Z</time>
      </trkpt>
      <trkpt lat="46.52818" lon="4.53483">
        <ele>253.598</ele>
        <time>2021-09-04T13:53:06Z</time>
      </trkpt>
      <trkpt lat="46.52811" lon="4.53484">
        <ele>251.598</ele>
        <time>2021-09-04T13:53:14Z</time>
      </trkpt>
      <trkpt lat="46.52804" lon="4.53485">
        <ele>253.598</ele>
        <time>2021-09-04T13:53:21Z</time>
      </trkpt>
      <trkpt lat="46.52798" lon="4.53481">
        <ele>252.598</ele>
        <time>2021-09-04T13:53:35Z</time>
      </trkpt>
      <trkpt lat="46.5279" lon="4.53476">
        <ele>258.598</ele>
        <time>2021-09-04T13:53:52Z</time>
      </trkpt>
      <trkpt lat="46.52782" lon="4.53475">
        <ele>260.598</ele>
        <time>2021-09-04T13:54:00Z</time>
      </trkpt>
      <trkpt lat="46.52776" lon="4.53475">
        <ele>262.598</ele>
        <time>2021-09-04T13:54:08Z</time>
      </trkpt>
      <trkpt lat="46.52769" lon="4.53475">
        <ele>262.598</ele>
        <time>2021-09-04T13:54:14Z</time>
      </trkpt>
      <trkpt lat="46.52762" lon="4.53473">
        <ele>264.598</ele>
        <time>2021-09-04T13:54:20Z</time>
      </trkpt>
      <trkpt lat="46.52755" lon="4.53469">
        <ele>262.598</ele>
        <time>2021-09-04T13:54:28Z</time>
      </trkpt>
      <trkpt lat="46.52748" lon="4.53468">
        <ele>262.598</ele>
        <time>2021-09-04T13:54:43Z</time>
      </trkpt>
      <trkpt lat="46.5274" lon="4.53467">
        <ele>259.598</ele>
        <time>2021-09-04T13:54:48Z</time>
      </trkpt>
      <trkpt lat="46.5273" lon="4.53465">
        <ele>258.598</ele>
        <time>2021-09-04T13:54:53Z</time>
      </trkpt>
      <trkpt lat="46.52724" lon="4.53463">
        <ele>261.598</ele>
        <time>2021-09-04T13:54:59Z</time>
      </trkpt>
      <trkpt lat="46.52715" lon="4.53462">
        <ele>262.598</ele>
        <time>2021-09-04T13:55:09Z</time>
      </trkpt>
      <trkpt lat="46.52708" lon="4.53466">
        <ele>258.597</ele>
        <time>2021-09-04T13:55:15Z</time>
      </trkpt>
      <trkpt lat="46.52701" lon="4.53468">
        <ele>255.597</ele>
        <time>2021-09-04T13:55:20Z</time>
      </trkpt>
      <trkpt lat="46.52694" lon="4.53465">
        <ele>257.597</ele>
        <time>2021-09-04T13:55:31Z</time>
      </trkpt>
      <trkpt lat="46.52687" lon="4.53468">
        <ele>258.597</ele>
        <time>2021-09-04T13:55:37Z</time>
      </trkpt>
      <trkpt lat="46.52679" lon="4.53469">
        <ele>256.597</ele>
        <time>2021-09-04T13:55:46Z</time>
      </trkpt>
      <trkpt lat="46.52673" lon="4.53465">
        <ele>259.597</ele>
        <time>2021-09-04T13:55:51Z</time>
      </trkpt>
      <trkpt lat="46.52665" lon="4.53469">
        <ele>257.597</ele>
        <time>2021-09-04T13:55:56Z</time>
      </trkpt>
      <trkpt lat="46.52657" lon="4.53469">
        <ele>257.597</ele>
        <time>2021-09-04T13:56:02Z</time>
      </trkpt>
      <trkpt lat="46.52651" lon="4.53467">
        <ele>258.597</ele>
        <time>2021-09-04T13:56:15Z</time>
      </trkpt>
      <trkpt lat="46.52644" lon="4.5347">
        <ele>257.597</ele>
        <time>2021-09-04T13:56:21Z</time>
      </trkpt>
      <trkpt lat="46.52637" lon="4.53469">
        <ele>257.597</ele>
        <time>2021-09-04T13:56:26Z</time>
      </trkpt>
      <trkpt lat="46.5263" lon="4.53468">
        <ele>256.597</ele>
        <time>2021-09-04T13:56:33Z</time>
      </trkpt>
      <trkpt lat="46.52622" lon="4.5347">
        <ele>253.597</ele>
        <time>2021-09-04T13:56:38Z</time>
      </trkpt>
      <trkpt lat="46.52615" lon="4.53471">
        <ele>253.597</ele>
        <time>2021-09-04T13:56:43Z</time>
      </trkpt>
      <trkpt lat="46.52607" lon="4.53473">
        <ele>255.597</ele>
        <time>2021-09-04T13:56:48Z</time>
      </trkpt>
      <trkpt lat="46.52599" lon="4.53476">
        <ele>257.597</ele>
        <time>2021-09-04T13:56:53Z</time>
      </trkpt>
      <trkpt lat="46.52585" lon="4.53477">
        <ele>258.597</ele>
        <time>2021-09-04T13:56:58Z</time>
      </trkpt>
      <trkpt lat="46.52578" lon="4.53479">
        <ele>257.597</ele>
        <time>2021-09-04T13:57:03Z</time>
      </trkpt>
      <trkpt lat="46.52572" lon="4.53477">
        <ele>259.597</ele>
        <time>2021-09-04T13:57:16Z</time>
      </trkpt>
      <trkpt lat="46.52565" lon="4.53477">
        <ele>257.597</ele>
        <time>2021-09-04T13:57:27Z</time>
      </trkpt>
      <trkpt lat="46.52557" lon="4.53479">
        <ele>254.597</ele>
        <time>2021-09-04T13:57:34Z</time>
      </trkpt>
      <trkpt lat="46.5255" lon="4.53481">
        <ele>250.597</ele>
        <time>2021-09-04T13:57:39Z</time>
      </trkpt>
      <trkpt lat="46.52543" lon="4.53481">
        <ele>251.597</ele>
        <time>2021-09-04T13:57:50Z</time>
      </trkpt>
      <trkpt lat="46.52536" lon="4.53479">
        <ele>252.597</ele>
        <time>2021-09-04T13:57:59Z</time>
      </trkpt>
      <trkpt lat="46.52525" lon="4.53477">
        <ele>253.597</ele>
        <time>2021-09-04T13:58:04Z</time>
      </trkpt>
      <trkpt lat="46.52517" lon="4.5348">
        <ele>255.597</ele>
        <time>2021-09-04T13:58:09Z</time>
      </trkpt>
      <trkpt lat="46.5251" lon="4.5348">
        <ele>257.597</ele>
        <time>2021-09-04T13:58:17Z</time>
      </trkpt>
      <trkpt lat="46.52502" lon="4.53479">
        <ele>255.597</ele>
        <time>2021-09-04T13:58:22Z</time>
      </trkpt>
      <trkpt lat="46.52494" lon="4.5348">
        <ele>257.597</ele>
        <time>2021-09-04T13:58:27Z</time>
      </trkpt>
      <trkpt lat="46.52487" lon="4.53479">
        <ele>257.597</ele>
        <time>2021-09-04T13:58:32Z</time>
      </trkpt>
      <trkpt lat="46.52481" lon="4.53483">
        <ele>255.597</ele>
        <time>2021-09-04T13:59:52Z</time>
      </trkpt>
      <trkpt lat="46.52475" lon="4.53478">
        <ele>254.597</ele>
        <time>2021-09-04T14:00:02Z</time>
      </trkpt>
      <trkpt lat="46.52469" lon="4.53474">
        <ele>254.597</ele>
        <time>2021-09-04T14:00:09Z</time>
      </trkpt>
      <trkpt lat="46.52465" lon="4.53466">
        <ele>254.597</ele>
        <time>2021-09-04T14:00:14Z</time>
      </trkpt>
      <trkpt lat="46.5246" lon="4.53456">
        <ele>254.597</ele>
        <time>2021-09-04T14:00:20Z</time>
      </trkpt>
      <trkpt lat="46.52454" lon="4.53452">
        <ele>253.597</ele>
        <time>2021-09-04T14:00:29Z</time>
      </trkpt>
      <trkpt lat="46.52448" lon="4.53449">
        <ele>249.597</ele>
        <time>2021-09-04T14:00:36Z</time>
      </trkpt>
      <trkpt lat="46.52441" lon="4.53444">
        <ele>251.597</ele>
        <time>2021-09-04T14:00:45Z</time>
      </trkpt>
      <trkpt lat="46.52435" lon="4.53439">
        <ele>253.597</ele>
        <time>2021-09-04T14:00:51Z</time>
      </trkpt>
      <trkpt lat="46.52428" lon="4.53434">
        <ele>252.597</ele>
        <time>2021-09-04T14:00:59Z</time>
      </trkpt>
      <trkpt lat="46.52421" lon="4.53432">
        <ele>253.597</ele>
        <time>2021-09-04T14:01:07Z</time>
      </trkpt>
      <trkpt lat="46.52415" lon="4.53426">
        <ele>256.597</ele>
        <time>2021-09-04T14:01:14Z</time>
      </trkpt>
      <trkpt lat="46.52408" lon="4.53423">
        <ele>258.597</ele>
        <time>2021-09-04T14:01:19Z</time>
      </trkpt>
      <trkpt lat="46.52399" lon="4.53419">
        <ele>260.597</ele>
        <time>2021-09-04T14:01:45Z</time>
      </trkpt>
      <trkpt lat="46.5239" lon="4.53423">
        <ele>260.597</ele>
        <time>2021-09-04T14:01:50Z</time>
      </trkpt>
      <trkpt lat="46.52383" lon="4.53423">
        <ele>259.597</ele>
        <time>2021-09-04T14:01:55Z</time>
      </trkpt>
      <trkpt lat="46.52376" lon="4.53425">
        <ele>257.597</ele>
        <time>2021-09-04T14:02:02Z</time>
      </trkpt>
      <trkpt lat="46.52369" lon="4.53425">
        <ele>258.597</ele>
        <time>2021-09-04T14:02:16Z</time>
      </trkpt>
      <trkpt lat="46.52362" lon="4.53424">
        <ele>259.597</ele>
        <time>2021-09-04T14:02:26Z</time>
      </trkpt>
      <trkpt lat="46.52354" lon="4.53427">
        <ele>257.597</ele>
        <time>2021-09-04T14:02:31Z</time>
      </trkpt>
      <trkpt lat="46.52348" lon="4.53425">
        <ele>259.596</ele>
        <time>2021-09-04T14:02:36Z</time>
      </trkpt>
      <trkpt lat="46.52341" lon="4.53422">
        <ele>261.596</ele>
        <time>2021-09-04T14:02:43Z</time>
      </trkpt>
      <trkpt lat="46.52334" lon="4.5342">
        <ele>262.596</ele>
        <time>2021-09-04T14:02:56Z</time>
      </trkpt>
      <trkpt lat="46.52328" lon="4.53413">
        <ele>267.596</ele>
        <time>2021-09-04T14:03:03Z</time>
      </trkpt>
      <trkpt lat="46.52322" lon="4.5341">
        <ele>264.596</ele>
        <time>2021-09-04T14:03:08Z</time>
      </trkpt>
      <trkpt lat="46.52313" lon="4.53409">
        <ele>268.596</ele>
        <time>2021-09-04T14:03:13Z</time>
      </trkpt>
      <trkpt lat="46.52307" lon="4.53405">
        <ele>267.596</ele>
        <time>2021-09-04T14:03:20Z</time>
      </trkpt>
      <trkpt lat="46.52299" lon="4.53405">
        <ele>267.596</ele>
        <time>2021-09-04T14:03:29Z</time>
      </trkpt>
      <trkpt lat="46.52292" lon="4.53406">
        <ele>265.596</ele>
        <time>2021-09-04T14:03:34Z</time>
      </trkpt>
      <trkpt lat="46.52283" lon="4.53402">
        <ele>267.596</ele>
        <time>2021-09-04T14:03:42Z</time>
      </trkpt>
      <trkpt lat="46.52277" lon="4.53402">
        <ele>264.596</ele>
        <time>2021-09-04T14:03:47Z</time>
      </trkpt>
      <trkpt lat="46.52269" lon="4.534">
        <ele>268.596</ele>
        <time>2021-09-04T14:03:55Z</time>
      </trkpt>
      <trkpt lat="46.52261" lon="4.53399">
        <ele>271.596</ele>
        <time>2021-09-04T14:04:00Z</time>
      </trkpt>
      <trkpt lat="46.52253" lon="4.53398">
        <ele>276.596</ele>
        <time>2021-09-04T14:04:10Z</time>
      </trkpt>
      <trkpt lat="46.52245" lon="4.53399">
        <ele>275.596</ele>
        <time>2021-09-04T14:04:15Z</time>
      </trkpt>
      <trkpt lat="46.52237" lon="4.53399">
        <ele>274.596</ele>
        <time>2021-09-04T14:04:21Z</time>
      </trkpt>
      <trkpt lat="46.5223" lon="4.53402">
        <ele>275.596</ele>
        <time>2021-09-04T14:04:28Z</time>
      </trkpt>
      <trkpt lat="46.52221" lon="4.53403">
        <ele>276.596</ele>
        <time>2021-09-04T14:04:33Z</time>
      </trkpt>
      <trkpt lat="46.52215" lon="4.53406">
        <ele>277.596</ele>
        <time>2021-09-04T14:04:43Z</time>
      </trkpt>
      <trkpt lat="46.52207" lon="4.53403">
        <ele>280.596</ele>
        <time>2021-09-04T14:04:48Z</time>
      </trkpt>
      <trkpt lat="46.52198" lon="4.53405">
        <ele>281.596</ele>
        <time>2021-09-04T14:04:53Z</time>
      </trkpt>
      <trkpt lat="46.52191" lon="4.53403">
        <ele>279.596</ele>
        <time>2021-09-04T14:04:59Z</time>
      </trkpt>
      <trkpt lat="46.52184" lon="4.53402">
        <ele>281.596</ele>
        <time>2021-09-04T14:05:07Z</time>
      </trkpt>
      <trkpt lat="46.52177" lon="4.53404">
        <ele>280.596</ele>
        <time>2021-09-04T14:05:14Z</time>
      </trkpt>
      <trkpt lat="46.5217" lon="4.53406">
        <ele>277.596</ele>
        <time>2021-09-04T14:05:24Z</time>
      </trkpt>
      <trkpt lat="46.52164" lon="4.53407">
        <ele>274.596</ele>
        <time>2021-09-04T14:05:29Z</time>
      </trkpt>
      <trkpt lat="46.52157" lon="4.53408">
        <ele>275.596</ele>
        <time>2021-09-04T14:05:40Z</time>
      </trkpt>
      <trkpt lat="46.5215" lon="4.53406">
        <ele>275.596</ele>
        <time>2021-09-04T14:05:48Z</time>
      </trkpt>
      <trkpt lat="46.52144" lon="4.53412">
        <ele>273.596</ele>
        <time>2021-09-04T14:05:53Z</time>
      </trkpt>
      <trkpt lat="46.52137" lon="4.5341">
        <ele>271.596</ele>
        <time>2021-09-04T14:06:00Z</time>
      </trkpt>
      <trkpt lat="46.5213" lon="4.53407">
        <ele>273.596</ele>
        <time>2021-09-04T14:06:06Z</time>
      </trkpt>
      <trkpt lat="46.52123" lon="4.53405">
        <ele>276.596</ele>
        <time>2021-09-04T14:06:18Z</time>
      </trkpt>
      <trkpt lat="46.52117" lon="4.53403">
        <ele>279.596</ele>
        <time>2021-09-04T14:06:33Z</time>
      </trkpt>
      <trkpt lat="46.52108" lon="4.53403">
        <ele>280.596</ele>
        <time>2021-09-04T14:06:46Z</time>
      </trkpt>
      <trkpt lat="46.52102" lon="4.534">
        <ele>281.596</ele>
        <time>2021-09-04T14:06:54Z</time>
      </trkpt>
      <trkpt lat="46.52095" lon="4.53401">
        <ele>277.596</ele>
        <time>2021-09-04T14:06:59Z</time>
      </trkpt>
      <trkpt lat="46.52088" lon="4.53403">
        <ele>276.596</ele>
        <time>2021-09-04T14:07:06Z</time>
      </trkpt>
      <trkpt lat="46.52081" lon="4.53406">
        <ele>277.596</ele>
        <time>2021-09-04T14:07:19Z</time>
      </trkpt>
      <trkpt lat="46.52074" lon="4.5341">
        <ele>279.596</ele>
        <time>2021-09-04T14:07:27Z</time>
      </trkpt>
      <trkpt lat="46.52068" lon="4.53418">
        <ele>276.596</ele>
        <time>2021-09-04T14:07:34Z</time>
      </trkpt>
      <trkpt lat="46.52059" lon="4.53418">
        <ele>276.596</ele>
        <time>2021-09-04T14:07:40Z</time>
      </trkpt>
      <trkpt lat="46.52049" lon="4.53421">
        <ele>276.596</ele>
        <time>2021-09-04T14:07:45Z</time>
      </trkpt>
      <trkpt lat="46.52042" lon="4.53422">
        <ele>273.596</ele>
        <time>2021-09-04T14:07:52Z</time>
      </trkpt>
      <trkpt lat="46.52035" lon="4.53423">
        <ele>273.596</ele>
        <time>2021-09-04T14:07:59Z</time>
      </trkpt>
      <trkpt lat="46.5203" lon="4.5343">
        <ele>279.596</ele>
        <time>2021-09-04T14:10:06Z</time>
      </trkpt>
      <trkpt lat="46.52026" lon="4.53421">
        <ele>291.596</ele>
        <time>2021-09-04T14:11:18Z</time>
      </trkpt>
      <trkpt lat="46.52029" lon="4.53413">
        <ele>287.596</ele>
        <time>2021-09-04T14:11:26Z</time>
      </trkpt>
      <trkpt lat="46.52027" lon="4.53404">
        <ele>286.596</ele>
        <time>2021-09-04T14:11:38Z</time>
      </trkpt>
      <trkpt lat="46.52026" lon="4.53393">
        <ele>282.596</ele>
        <time>2021-09-04T14:11:57Z</time>
      </trkpt>
      <trkpt lat="46.5202" lon="4.53384">
        <ele>274.596</ele>
        <time>2021-09-04T14:12:03Z</time>
      </trkpt>
      <trkpt lat="46.52017" lon="4.53374">
        <ele>272.596</ele>
        <time>2021-09-04T14:12:08Z</time>
      </trkpt>
      <trkpt lat="46.52017" lon="4.53362">
        <ele>271.596</ele>
        <time>2021-09-04T14:12:13Z</time>
      </trkpt>
      <trkpt lat="46.52016" lon="4.53352">
        <ele>270.596</ele>
        <time>2021-09-04T14:12:18Z</time>
      </trkpt>
      <trkpt lat="46.52018" lon="4.53343">
        <ele>271.596</ele>
        <time>2021-09-04T14:12:31Z</time>
      </trkpt>
      <trkpt lat="46.52017" lon="4.53333">
        <ele>272.596</ele>
        <time>2021-09-04T14:12:40Z</time>
      </trkpt>
      <trkpt lat="46.52017" lon="4.53323">
        <ele>273.596</ele>
        <time>2021-09-04T14:12:45Z</time>
      </trkpt>
      <trkpt lat="46.52019" lon="4.53312">
        <ele>270.595</ele>
        <time>2021-09-04T14:12:52Z</time>
      </trkpt>
      <trkpt lat="46.5202" lon="4.53303">
        <ele>268.595</ele>
        <time>2021-09-04T14:12:58Z</time>
      </trkpt>
      <trkpt lat="46.52019" lon="4.53292">
        <ele>266.595</ele>
        <time>2021-09-04T14:13:03Z</time>
      </trkpt>
      <trkpt lat="46.52019" lon="4.53278">
        <ele>268.595</ele>
        <time>2021-09-04T14:13:11Z</time>
      </trkpt>
      <trkpt lat="46.5202" lon="4.53268">
        <ele>273.595</ele>
        <time>2021-09-04T14:13:16Z</time>
      </trkpt>
      <trkpt lat="46.52018" lon="4.53257">
        <ele>273.595</ele>
        <time>2021-09-04T14:13:31Z</time>
      </trkpt>
      <trkpt lat="46.52018" lon="4.53242">
        <ele>274.595</ele>
        <time>2021-09-04T14:13:36Z</time>
      </trkpt>
      <trkpt lat="46.52015" lon="4.53232">
        <ele>273.595</ele>
        <time>2021-09-04T14:13:41Z</time>
      </trkpt>
      <trkpt lat="46.52012" lon="4.53221">
        <ele>272.595</ele>
        <time>2021-09-04T14:13:47Z</time>
      </trkpt>
      <trkpt lat="46.52008" lon="4.53213">
        <ele>272.595</ele>
        <time>2021-09-04T14:13:56Z</time>
      </trkpt>
      <trkpt lat="46.52003" lon="4.53206">
        <ele>272.595</ele>
        <time>2021-09-04T14:14:01Z</time>
      </trkpt>
      <trkpt lat="46.51997" lon="4.532">
        <ele>275.595</ele>
        <time>2021-09-04T14:14:08Z</time>
      </trkpt>
      <trkpt lat="46.51991" lon="4.53195">
        <ele>279.595</ele>
        <time>2021-09-04T14:14:15Z</time>
      </trkpt>
      <trkpt lat="46.51983" lon="4.53194">
        <ele>278.595</ele>
        <time>2021-09-04T14:14:22Z</time>
      </trkpt>
      <trkpt lat="46.51977" lon="4.53195">
        <ele>277.595</ele>
        <time>2021-09-04T14:14:28Z</time>
      </trkpt>
      <trkpt lat="46.5197" lon="4.53194">
        <ele>277.595</ele>
        <time>2021-09-04T14:14:33Z</time>
      </trkpt>
      <trkpt lat="46.51964" lon="4.53189">
        <ele>277.595</ele>
        <time>2021-09-04T14:14:41Z</time>
      </trkpt>
      <trkpt lat="46.51958" lon="4.53183">
        <ele>281.595</ele>
        <time>2021-09-04T14:14:54Z</time>
      </trkpt>
      <trkpt lat="46.51952" lon="4.53177">
        <ele>281.595</ele>
        <time>2021-09-04T14:15:07Z</time>
      </trkpt>
      <trkpt lat="46.51946" lon="4.53172">
        <ele>281.595</ele>
        <time>2021-09-04T14:15:12Z</time>
      </trkpt>
      <trkpt lat="46.51934" lon="4.53168">
        <ele>282.595</ele>
        <time>2021-09-04T14:15:17Z</time>
      </trkpt>
      <trkpt lat="46.51929" lon="4.53161">
        <ele>280.595</ele>
        <time>2021-09-04T14:15:24Z</time>
      </trkpt>
      <trkpt lat="46.51922" lon="4.53159">
        <ele>281.595</ele>
        <time>2021-09-04T14:15:35Z</time>
      </trkpt>
      <trkpt lat="46.51915" lon="4.53157">
        <ele>279.595</ele>
        <time>2021-09-04T14:15:42Z</time>
      </trkpt>
      <trkpt lat="46.5191" lon="4.53151">
        <ele>278.595</ele>
        <time>2021-09-04T14:15:48Z</time>
      </trkpt>
      <trkpt lat="46.51906" lon="4.53142">
        <ele>280.595</ele>
        <time>2021-09-04T14:15:54Z</time>
      </trkpt>
      <trkpt lat="46.51902" lon="4.53134">
        <ele>279.595</ele>
        <time>2021-09-04T14:16:00Z</time>
      </trkpt>
      <trkpt lat="46.51897" lon="4.53128">
        <ele>280.595</ele>
        <time>2021-09-04T14:16:06Z</time>
      </trkpt>
      <trkpt lat="46.51892" lon="4.53121">
        <ele>285.595</ele>
        <time>2021-09-04T14:16:14Z</time>
      </trkpt>
      <trkpt lat="46.51885" lon="4.53118">
        <ele>283.595</ele>
        <time>2021-09-04T14:16:19Z</time>
      </trkpt>
      <trkpt lat="46.51882" lon="4.53109">
        <ele>285.595</ele>
        <time>2021-09-04T14:16:31Z</time>
      </trkpt>
      <trkpt lat="46.51878" lon="4.53102">
        <ele>286.595</ele>
        <time>2021-09-04T14:16:41Z</time>
      </trkpt>
      <trkpt lat="46.51873" lon="4.53095">
        <ele>285.595</ele>
        <time>2021-09-04T14:16:47Z</time>
      </trkpt>
      <trkpt lat="46.51868" lon="4.53084">
        <ele>286.595</ele>
        <time>2021-09-04T14:17:02Z</time>
      </trkpt>
      <trkpt lat="46.51859" lon="4.53074">
        <ele>286.595</ele>
        <time>2021-09-04T14:17:07Z</time>
      </trkpt>
      <trkpt lat="46.51846" lon="4.53066">
        <ele>286.595</ele>
        <time>2021-09-04T14:17:12Z</time>
      </trkpt>
      <trkpt lat="46.51839" lon="4.53063">
        <ele>290.595</ele>
        <time>2021-09-04T14:17:19Z</time>
      </trkpt>
      <trkpt lat="46.51834" lon="4.53057">
        <ele>291.595</ele>
        <time>2021-09-04T14:17:26Z</time>
      </trkpt>
      <trkpt lat="46.51827" lon="4.53054">
        <ele>290.595</ele>
        <time>2021-09-04T14:17:33Z</time>
      </trkpt>
      <trkpt lat="46.5182" lon="4.53052">
        <ele>291.595</ele>
        <time>2021-09-04T14:17:39Z</time>
      </trkpt>
      <trkpt lat="46.51813" lon="4.53046">
        <ele>292.595</ele>
        <time>2021-09-04T14:17:47Z</time>
      </trkpt>
      <trkpt lat="46.51808" lon="4.53037">
        <ele>292.595</ele>
        <time>2021-09-04T14:17:54Z</time>
      </trkpt>
      <trkpt lat="46.518" lon="4.53031">
        <ele>292.595</ele>
        <time>2021-09-04T14:17:59Z</time>
      </trkpt>
      <trkpt lat="46.51793" lon="4.53029">
        <ele>291.595</ele>
        <time>2021-09-04T14:18:04Z</time>
      </trkpt>
      <trkpt lat="46.51787" lon="4.53024">
        <ele>292.595</ele>
        <time>2021-09-04T14:18:17Z</time>
      </trkpt>
      <trkpt lat="46.5178" lon="4.53017">
        <ele>294.595</ele>
        <time>2021-09-04T14:18:27Z</time>
      </trkpt>
      <trkpt lat="46.51772" lon="4.53014">
        <ele>295.595</ele>
        <time>2021-09-04T14:18:32Z</time>
      </trkpt>
      <trkpt lat="46.51765" lon="4.53008">
        <ele>292.595</ele>
        <time>2021-09-04T14:18:37Z</time>
      </trkpt>
      <trkpt lat="46.51758" lon="4.53007">
        <ele>293.595</ele>
        <time>2021-09-04T14:18:44Z</time>
      </trkpt>
      <trkpt lat="46.5175" lon="4.53005">
        <ele>294.595</ele>
        <time>2021-09-04T14:19:03Z</time>
      </trkpt>
      <trkpt lat="46.51742" lon="4.53002">
        <ele>292.595</ele>
        <time>2021-09-04T14:19:08Z</time>
      </trkpt>
      <trkpt lat="46.51734" lon="4.53">
        <ele>292.594</ele>
        <time>2021-09-04T14:19:13Z</time>
      </trkpt>
      <trkpt lat="46.51727" lon="4.52997">
        <ele>293.594</ele>
        <time>2021-09-04T14:19:19Z</time>
      </trkpt>
      <trkpt lat="46.5172" lon="4.52993">
        <ele>292.594</ele>
        <time>2021-09-04T14:19:26Z</time>
      </trkpt>
      <trkpt lat="46.51714" lon="4.5299">
        <ele>293.594</ele>
        <time>2021-09-04T14:19:38Z</time>
      </trkpt>
      <trkpt lat="46.51709" lon="4.52983">
        <ele>295.594</ele>
        <time>2021-09-04T14:19:55Z</time>
      </trkpt>
      <trkpt lat="46.51699" lon="4.52974">
        <ele>293.594</ele>
        <time>2021-09-04T14:20:00Z</time>
      </trkpt>
      <trkpt lat="46.51692" lon="4.52967">
        <ele>294.594</ele>
        <time>2021-09-04T14:20:05Z</time>
      </trkpt>
      <trkpt lat="46.51686" lon="4.52958">
        <ele>293.594</ele>
        <time>2021-09-04T14:20:10Z</time>
      </trkpt>
      <trkpt lat="46.51681" lon="4.52951">
        <ele>294.594</ele>
        <time>2021-09-04T14:20:15Z</time>
      </trkpt>
      <trkpt lat="46.51675" lon="4.52944">
        <ele>295.594</ele>
        <time>2021-09-04T14:20:24Z</time>
      </trkpt>
      <trkpt lat="46.51671" lon="4.52937">
        <ele>296.594</ele>
        <time>2021-09-04T14:20:36Z</time>
      </trkpt>
      <trkpt lat="46.51667" lon="4.5293">
        <ele>298.594</ele>
        <time>2021-09-04T14:20:48Z</time>
      </trkpt>
      <trkpt lat="46.5166" lon="4.52924">
        <ele>301.594</ele>
        <time>2021-09-04T14:20:55Z</time>
      </trkpt>
      <trkpt lat="46.51651" lon="4.52918">
        <ele>303.594</ele>
        <time>2021-09-04T14:21:00Z</time>
      </trkpt>
      <trkpt lat="46.51644" lon="4.52911">
        <ele>302.594</ele>
        <time>2021-09-04T14:21:05Z</time>
      </trkpt>
      <trkpt lat="46.51638" lon="4.52909">
        <ele>302.594</ele>
        <time>2021-09-04T14:21:12Z</time>
      </trkpt>
      <trkpt lat="46.51631" lon="4.52905">
        <ele>305.594</ele>
        <time>2021-09-04T14:21:17Z</time>
      </trkpt>
      <trkpt lat="46.51624" lon="4.52903">
        <ele>304.594</ele>
        <time>2021-09-04T14:21:25Z</time>
      </trkpt>
      <trkpt lat="46.51617" lon="4.52899">
        <ele>304.594</ele>
        <time>2021-09-04T14:21:32Z</time>
      </trkpt>
      <trkpt lat="46.5161" lon="4.52894">
        <ele>301.594</ele>
        <time>2021-09-04T14:21:37Z</time>
      </trkpt>
      <trkpt lat="46.51603" lon="4.52886">
        <ele>301.594</ele>
        <time>2021-09-04T14:21:42Z</time>
      </trkpt>
      <trkpt lat="46.51598" lon="4.5288">
        <ele>301.594</ele>
        <time>2021-09-04T14:21:49Z</time>
      </trkpt>
      <trkpt lat="46.51593" lon="4.52873">
        <ele>303.594</ele>
        <time>2021-09-04T14:21:58Z</time>
      </trkpt>
      <trkpt lat="46.51589" lon="4.52865">
        <ele>301.594</ele>
        <time>2021-09-04T14:22:16Z</time>
      </trkpt>
      <trkpt lat="46.51582" lon="4.52856">
        <ele>297.594</ele>
        <time>2021-09-04T14:22:21Z</time>
      </trkpt>
      <trkpt lat="46.51577" lon="4.52849">
        <ele>299.594</ele>
        <time>2021-09-04T14:22:28Z</time>
      </trkpt>
      <trkpt lat="46.51571" lon="4.52837">
        <ele>301.594</ele>
        <time>2021-09-04T14:22:33Z</time>
      </trkpt>
      <trkpt lat="46.51565" lon="4.52828">
        <ele>302.594</ele>
        <time>2021-09-04T14:22:38Z</time>
      </trkpt>
      <trkpt lat="46.51562" lon="4.52819">
        <ele>302.594</ele>
        <time>2021-09-04T14:22:47Z</time>
      </trkpt>
      <trkpt lat="46.51557" lon="4.52811">
        <ele>302.594</ele>
        <time>2021-09-04T14:22:55Z</time>
      </trkpt>
      <trkpt lat="46.51553" lon="4.52804">
        <ele>303.594</ele>
        <time>2021-09-04T14:23:02Z</time>
      </trkpt>
      <trkpt lat="46.51548" lon="4.52792">
        <ele>304.594</ele>
        <time>2021-09-04T14:23:07Z</time>
      </trkpt>
      <trkpt lat="46.51543" lon="4.52784">
        <ele>306.594</ele>
        <time>2021-09-04T14:23:19Z</time>
      </trkpt>
      <trkpt lat="46.51539" lon="4.52776">
        <ele>305.594</ele>
        <time>2021-09-04T14:23:25Z</time>
      </trkpt>
      <trkpt lat="46.51534" lon="4.52768">
        <ele>308.594</ele>
        <time>2021-09-04T14:23:31Z</time>
      </trkpt>
      <trkpt lat="46.5153" lon="4.52759">
        <ele>309.594</ele>
        <time>2021-09-04T14:23:45Z</time>
      </trkpt>
      <trkpt lat="46.51526" lon="4.52746">
        <ele>309.594</ele>
        <time>2021-09-04T14:23:50Z</time>
      </trkpt>
      <trkpt lat="46.51522" lon="4.52735">
        <ele>311.594</ele>
        <time>2021-09-04T14:23:55Z</time>
      </trkpt>
      <trkpt lat="46.5152" lon="4.52726">
        <ele>312.594</ele>
        <time>2021-09-04T14:24:02Z</time>
      </trkpt>
      <trkpt lat="46.51518" lon="4.52717">
        <ele>312.594</ele>
        <time>2021-09-04T14:24:08Z</time>
      </trkpt>
      <trkpt lat="46.51518" lon="4.52707">
        <ele>314.594</ele>
        <time>2021-09-04T14:24:15Z</time>
      </trkpt>
      <trkpt lat="46.51515" lon="4.52698">
        <ele>314.594</ele>
        <time>2021-09-04T14:24:21Z</time>
      </trkpt>
      <trkpt lat="46.51514" lon="4.52688">
        <ele>314.594</ele>
        <time>2021-09-04T14:24:28Z</time>
      </trkpt>
      <trkpt lat="46.51513" lon="4.52678">
        <ele>312.594</ele>
        <time>2021-09-04T14:24:40Z</time>
      </trkpt>
      <trkpt lat="46.51513" lon="4.52668">
        <ele>314.594</ele>
        <time>2021-09-04T14:24:45Z</time>
      </trkpt>
      <trkpt lat="46.51513" lon="4.52656">
        <ele>314.594</ele>
        <time>2021-09-04T14:24:54Z</time>
      </trkpt>
      <trkpt lat="46.51514" lon="4.52646">
        <ele>315.594</ele>
        <time>2021-09-04T14:24:59Z</time>
      </trkpt>
      <trkpt lat="46.5151" lon="4.52635">
        <ele>313.594</ele>
        <time>2021-09-04T14:25:04Z</time>
      </trkpt>
      <trkpt lat="46.51508" lon="4.52625">
        <ele>315.594</ele>
        <time>2021-09-04T14:25:10Z</time>
      </trkpt>
      <trkpt lat="46.51506" lon="4.52615">
        <ele>312.594</ele>
        <time>2021-09-04T14:25:16Z</time>
      </trkpt>
      <trkpt lat="46.51505" lon="4.52605">
        <ele>312.594</ele>
        <time>2021-09-04T14:25:21Z</time>
      </trkpt>
      <trkpt lat="46.51506" lon="4.52596">
        <ele>313.594</ele>
        <time>2021-09-04T14:25:42Z</time>
      </trkpt>
      <trkpt lat="46.51507" lon="4.52584">
        <ele>311.594</ele>
        <time>2021-09-04T14:25:49Z</time>
      </trkpt>
      <trkpt lat="46.51508" lon="4.52574">
        <ele>311.594</ele>
        <time>2021-09-04T14:25:54Z</time>
      </trkpt>
      <trkpt lat="46.5151" lon="4.52564">
        <ele>311.594</ele>
        <time>2021-09-04T14:26:00Z</time>
      </trkpt>
      <trkpt lat="46.5151" lon="4.52554">
        <ele>312.594</ele>
        <time>2021-09-04T14:26:06Z</time>
      </trkpt>
      <trkpt lat="46.51515" lon="4.52546">
        <ele>311.594</ele>
        <time>2021-09-04T14:26:13Z</time>
      </trkpt>
      <trkpt lat="46.51516" lon="4.52537">
        <ele>311.594</ele>
        <time>2021-09-04T14:26:19Z</time>
      </trkpt>
      <trkpt lat="46.51517" lon="4.52527">
        <ele>312.594</ele>
        <time>2021-09-04T14:26:25Z</time>
      </trkpt>
      <trkpt lat="46.51526" lon="4.52517">
        <ele>312.594</ele>
        <time>2021-09-04T14:26:30Z</time>
      </trkpt>
      <trkpt lat="46.51518" lon="4.52515">
        <ele>314.594</ele>
        <time>2021-09-04T14:26:44Z</time>
      </trkpt>
      <trkpt lat="46.51518" lon="4.52505">
        <ele>313.594</ele>
        <time>2021-09-04T14:26:52Z</time>
      </trkpt>
      <trkpt lat="46.51517" lon="4.52493">
        <ele>314.594</ele>
        <time>2021-09-04T14:26:57Z</time>
      </trkpt>
      <trkpt lat="46.51513" lon="4.52482">
        <ele>313.594</ele>
        <time>2021-09-04T14:27:02Z</time>
      </trkpt>
      <trkpt lat="46.51518" lon="4.52473">
        <ele>316.594</ele>
        <time>2021-09-04T14:27:09Z</time>
      </trkpt>
      <trkpt lat="46.5152" lon="4.52464">
        <ele>318.594</ele>
        <time>2021-09-04T14:27:17Z</time>
      </trkpt>
      <trkpt lat="46.51516" lon="4.52453">
        <ele>320.593</ele>
        <time>2021-09-04T14:27:58Z</time>
      </trkpt>
      <trkpt lat="46.5151" lon="4.52448">
        <ele>318.593</ele>
        <time>2021-09-04T14:28:03Z</time>
      </trkpt>
      <trkpt lat="46.51503" lon="4.5244">
        <ele>315.593</ele>
        <time>2021-09-04T14:28:08Z</time>
      </trkpt>
      <trkpt lat="46.51496" lon="4.5243">
        <ele>314.593</ele>
        <time>2021-09-04T14:28:13Z</time>
      </trkpt>
      <trkpt lat="46.51492" lon="4.5242">
        <ele>311.593</ele>
        <time>2021-09-04T14:28:18Z</time>
      </trkpt>
      <trkpt lat="46.51486" lon="4.52416">
        <ele>310.593</ele>
        <time>2021-09-04T14:28:23Z</time>
      </trkpt>
      <trkpt lat="46.51481" lon="4.52406">
        <ele>310.593</ele>
        <time>2021-09-04T14:28:29Z</time>
      </trkpt>
      <trkpt lat="46.51475" lon="4.52398">
        <ele>312.593</ele>
        <time>2021-09-04T14:28:34Z</time>
      </trkpt>
      <trkpt lat="46.51469" lon="4.52392">
        <ele>312.593</ele>
        <time>2021-09-04T14:28:42Z</time>
      </trkpt>
      <trkpt lat="46.51463" lon="4.52387">
        <ele>312.593</ele>
        <time>2021-09-04T14:28:48Z</time>
      </trkpt>
      <trkpt lat="46.51455" lon="4.5238">
        <ele>317.593</ele>
        <time>2021-09-04T14:28:53Z</time>
      </trkpt>
      <trkpt lat="46.5145" lon="4.52375">
        <ele>315.593</ele>
        <time>2021-09-04T14:28:58Z</time>
      </trkpt>
      <trkpt lat="46.51445" lon="4.52367">
        <ele>317.593</ele>
        <time>2021-09-04T14:29:02Z</time>
      </trkpt>
      <trkpt lat="46.51439" lon="4.52362">
        <ele>316.593</ele>
        <time>2021-09-04T14:29:08Z</time>
      </trkpt>
      <trkpt lat="46.51433" lon="4.52356">
        <ele>318.593</ele>
        <time>2021-09-04T14:29:14Z</time>
      </trkpt>
      <trkpt lat="46.51429" lon="4.52345">
        <ele>320.593</ele>
        <time>2021-09-04T14:29:19Z</time>
      </trkpt>
      <trkpt lat="46.51424" lon="4.52335">
        <ele>321.593</ele>
        <time>2021-09-04T14:29:27Z</time>
      </trkpt>
      <trkpt lat="46.5142" lon="4.52325">
        <ele>318.593</ele>
        <time>2021-09-04T14:29:37Z</time>
      </trkpt>
      <trkpt lat="46.51417" lon="4.52314">
        <ele>317.593</ele>
        <time>2021-09-04T14:29:44Z</time>
      </trkpt>
      <trkpt lat="46.51412" lon="4.523">
        <ele>318.593</ele>
        <time>2021-09-04T14:29:59Z</time>
      </trkpt>
      <trkpt lat="46.51413" lon="4.52288">
        <ele>318.593</ele>
        <time>2021-09-04T14:30:04Z</time>
      </trkpt>
      <trkpt lat="46.5141" lon="4.52277">
        <ele>316.593</ele>
        <time>2021-09-04T14:30:09Z</time>
      </trkpt>
      <trkpt lat="46.51407" lon="4.52266">
        <ele>316.593</ele>
        <time>2021-09-04T14:30:17Z</time>
      </trkpt>
      <trkpt lat="46.51404" lon="4.52253">
        <ele>316.593</ele>
        <time>2021-09-04T14:30:22Z</time>
      </trkpt>
      <trkpt lat="46.51403" lon="4.52242">
        <ele>316.593</ele>
        <time>2021-09-04T14:30:29Z</time>
      </trkpt>
      <trkpt lat="46.514" lon="4.52231">
        <ele>316.593</ele>
        <time>2021-09-04T14:30:35Z</time>
      </trkpt>
      <trkpt lat="46.51398" lon="4.52222">
        <ele>318.593</ele>
        <time>2021-09-04T14:30:40Z</time>
      </trkpt>
      <trkpt lat="46.51395" lon="4.52212">
        <ele>315.593</ele>
        <time>2021-09-04T14:30:48Z</time>
      </trkpt>
      <trkpt lat="46.51392" lon="4.52203">
        <ele>313.593</ele>
        <time>2021-09-04T14:30:55Z</time>
      </trkpt>
      <trkpt lat="46.51393" lon="4.52192">
        <ele>313.593</ele>
        <time>2021-09-04T14:31:01Z</time>
      </trkpt>
      <trkpt lat="46.51392" lon="4.52182">
        <ele>313.593</ele>
        <time>2021-09-04T14:31:09Z</time>
      </trkpt>
      <trkpt lat="46.51395" lon="4.52173">
        <ele>311.593</ele>
        <time>2021-09-04T14:31:17Z</time>
      </trkpt>
      <trkpt lat="46.51394" lon="4.52163">
        <ele>310.593</ele>
        <time>2021-09-04T14:31:22Z</time>
      </trkpt>
      <trkpt lat="46.51395" lon="4.52153">
        <ele>311.593</ele>
        <time>2021-09-04T14:31:27Z</time>
      </trkpt>
      <trkpt lat="46.51397" lon="4.52144">
        <ele>312.593</ele>
        <time>2021-09-04T14:31:32Z</time>
      </trkpt>
      <trkpt lat="46.514" lon="4.52134">
        <ele>312.593</ele>
        <time>2021-09-04T14:31:38Z</time>
      </trkpt>
      <trkpt lat="46.51401" lon="4.52124">
        <ele>309.593</ele>
        <time>2021-09-04T14:31:46Z</time>
      </trkpt>
      <trkpt lat="46.51402" lon="4.52114">
        <ele>310.593</ele>
        <time>2021-09-04T14:31:53Z</time>
      </trkpt>
      <trkpt lat="46.51403" lon="4.52105">
        <ele>310.593</ele>
        <time>2021-09-04T14:31:58Z</time>
      </trkpt>
      <trkpt lat="46.51406" lon="4.52094">
        <ele>309.593</ele>
        <time>2021-09-04T14:32:04Z</time>
      </trkpt>
      <trkpt lat="46.51408" lon="4.52086">
        <ele>309.593</ele>
        <time>2021-09-04T14:32:10Z</time>
      </trkpt>
      <trkpt lat="46.51409" lon="4.52075">
        <ele>309.593</ele>
        <time>2021-09-04T14:32:16Z</time>
      </trkpt>
      <trkpt lat="46.51409" lon="4.52063">
        <ele>307.593</ele>
        <time>2021-09-04T14:32:21Z</time>
      </trkpt>
      <trkpt lat="46.51411" lon="4.52052">
        <ele>307.593</ele>
        <time>2021-09-04T14:32:30Z</time>
      </trkpt>
      <trkpt lat="46.51412" lon="4.52042">
        <ele>307.593</ele>
        <time>2021-09-04T14:32:35Z</time>
      </trkpt>
      <trkpt lat="46.5141" lon="4.52032">
        <ele>308.593</ele>
        <time>2021-09-04T14:32:40Z</time>
      </trkpt>
      <trkpt lat="46.51408" lon="4.52022">
        <ele>309.593</ele>
        <time>2021-09-04T14:32:45Z</time>
      </trkpt>
      <trkpt lat="46.51405" lon="4.52011">
        <ele>308.593</ele>
        <time>2021-09-04T14:32:50Z</time>
      </trkpt>
      <trkpt lat="46.51404" lon="4.52001">
        <ele>309.593</ele>
        <time>2021-09-04T14:32:55Z</time>
      </trkpt>
      <trkpt lat="46.51401" lon="4.51991">
        <ele>309.593</ele>
        <time>2021-09-04T14:33:04Z</time>
      </trkpt>
      <trkpt lat="46.51399" lon="4.51979">
        <ele>310.593</ele>
        <time>2021-09-04T14:33:09Z</time>
      </trkpt>
      <trkpt lat="46.51395" lon="4.51968">
        <ele>311.593</ele>
        <time>2021-09-04T14:33:14Z</time>
      </trkpt>
      <trkpt lat="46.51393" lon="4.51958">
        <ele>312.593</ele>
        <time>2021-09-04T14:33:22Z</time>
      </trkpt>
      <trkpt lat="46.51389" lon="4.51948">
        <ele>312.593</ele>
        <time>2021-09-04T14:33:28Z</time>
      </trkpt>
      <trkpt lat="46.51385" lon="4.51939">
        <ele>308.593</ele>
        <time>2021-09-04T14:33:36Z</time>
      </trkpt>
      <trkpt lat="46.51379" lon="4.51929">
        <ele>309.593</ele>
        <time>2021-09-04T14:33:46Z</time>
      </trkpt>
      <trkpt lat="46.51373" lon="4.51919">
        <ele>307.593</ele>
        <time>2021-09-04T14:33:51Z</time>
      </trkpt>
      <trkpt lat="46.51373" lon="4.51909">
        <ele>307.593</ele>
        <time>2021-09-04T14:33:56Z</time>
      </trkpt>
      <trkpt lat="46.51367" lon="4.51899">
        <ele>306.593</ele>
        <time>2021-09-04T14:34:01Z</time>
      </trkpt>
      <trkpt lat="46.51361" lon="4.51894">
        <ele>305.593</ele>
        <time>2021-09-04T14:34:11Z</time>
      </trkpt>
      <trkpt lat="46.51357" lon="4.51881">
        <ele>306.593</ele>
        <time>2021-09-04T14:34:16Z</time>
      </trkpt>
      <trkpt lat="46.51351" lon="4.51872">
        <ele>306.593</ele>
        <time>2021-09-04T14:34:21Z</time>
      </trkpt>
      <trkpt lat="46.51344" lon="4.51874">
        <ele>300.593</ele>
        <time>2021-09-04T14:34:31Z</time>
      </trkpt>
      <trkpt lat="46.51341" lon="4.51863">
        <ele>302.593</ele>
        <time>2021-09-04T14:34:37Z</time>
      </trkpt>
      <trkpt lat="46.51336" lon="4.51853">
        <ele>303.593</ele>
        <time>2021-09-04T14:34:42Z</time>
      </trkpt>
      <trkpt lat="46.51331" lon="4.51846">
        <ele>304.593</ele>
        <time>2021-09-04T14:34:47Z</time>
      </trkpt>
      <trkpt lat="46.51326" lon="4.5184">
        <ele>304.593</ele>
        <time>2021-09-04T14:35:00Z</time>
      </trkpt>
      <trkpt lat="46.51323" lon="4.51829">
        <ele>302.592</ele>
        <time>2021-09-04T14:35:05Z</time>
      </trkpt>
      <trkpt lat="46.51322" lon="4.51818">
        <ele>304.592</ele>
        <time>2021-09-04T14:35:12Z</time>
      </trkpt>
      <trkpt lat="46.51321" lon="4.51799">
        <ele>308.592</ele>
        <time>2021-09-04T14:35:17Z</time>
      </trkpt>
      <trkpt lat="46.51318" lon="4.5179">
        <ele>307.592</ele>
        <time>2021-09-04T14:35:22Z</time>
      </trkpt>
      <trkpt lat="46.51316" lon="4.51779">
        <ele>309.592</ele>
        <time>2021-09-04T14:35:29Z</time>
      </trkpt>
      <trkpt lat="46.51312" lon="4.5177">
        <ele>307.592</ele>
        <time>2021-09-04T14:35:39Z</time>
      </trkpt>
      <trkpt lat="46.51313" lon="4.51758">
        <ele>305.592</ele>
        <time>2021-09-04T14:35:58Z</time>
      </trkpt>
      <trkpt lat="46.51309" lon="4.51748">
        <ele>303.592</ele>
        <time>2021-09-04T14:36:03Z</time>
      </trkpt>
      <trkpt lat="46.51308" lon="4.51737">
        <ele>303.592</ele>
        <time>2021-09-04T14:36:13Z</time>
      </trkpt>
      <trkpt lat="46.51305" lon="4.51727">
        <ele>302.592</ele>
        <time>2021-09-04T14:36:18Z</time>
      </trkpt>
      <trkpt lat="46.51303" lon="4.51714">
        <ele>301.592</ele>
        <time>2021-09-04T14:36:36Z</time>
      </trkpt>
      <trkpt lat="46.51297" lon="4.51698">
        <ele>299.592</ele>
        <time>2021-09-04T14:36:41Z</time>
      </trkpt>
      <trkpt lat="46.51291" lon="4.51674">
        <ele>300.592</ele>
        <time>2021-09-04T14:36:46Z</time>
      </trkpt>
      <trkpt lat="46.51288" lon="4.51654">
        <ele>304.592</ele>
        <time>2021-09-04T14:36:51Z</time>
      </trkpt>
      <trkpt lat="46.51288" lon="4.5164">
        <ele>306.592</ele>
        <time>2021-09-04T14:36:56Z</time>
      </trkpt>
      <trkpt lat="46.51286" lon="4.51631">
        <ele>307.592</ele>
        <time>2021-09-04T14:37:06Z</time>
      </trkpt>
      <trkpt lat="46.51285" lon="4.5162">
        <ele>303.592</ele>
        <time>2021-09-04T14:37:13Z</time>
      </trkpt>
      <trkpt lat="46.51287" lon="4.5161">
        <ele>303.592</ele>
        <time>2021-09-04T14:37:21Z</time>
      </trkpt>
      <trkpt lat="46.51286" lon="4.51599">
        <ele>305.592</ele>
        <time>2021-09-04T14:37:27Z</time>
      </trkpt>
      <trkpt lat="46.51287" lon="4.51587">
        <ele>306.592</ele>
        <time>2021-09-04T14:37:32Z</time>
      </trkpt>
      <trkpt lat="46.51288" lon="4.51573">
        <ele>308.592</ele>
        <time>2021-09-04T14:37:37Z</time>
      </trkpt>
      <trkpt lat="46.51287" lon="4.51563">
        <ele>311.592</ele>
        <time>2021-09-04T14:37:59Z</time>
      </trkpt>
      <trkpt lat="46.51287" lon="4.51553">
        <ele>310.592</ele>
        <time>2021-09-04T14:38:07Z</time>
      </trkpt>
      <trkpt lat="46.51289" lon="4.51544">
        <ele>310.592</ele>
        <time>2021-09-04T14:38:16Z</time>
      </trkpt>
      <trkpt lat="46.51292" lon="4.51535">
        <ele>310.592</ele>
        <time>2021-09-04T14:38:22Z</time>
      </trkpt>
      <trkpt lat="46.51294" lon="4.51526">
        <ele>311.592</ele>
        <time>2021-09-04T14:38:29Z</time>
      </trkpt>
      <trkpt lat="46.51298" lon="4.51518">
        <ele>315.592</ele>
        <time>2021-09-04T14:38:35Z</time>
      </trkpt>
      <trkpt lat="46.51303" lon="4.51511">
        <ele>318.592</ele>
        <time>2021-09-04T14:38:42Z</time>
      </trkpt>
      <trkpt lat="46.51307" lon="4.51503">
        <ele>316.592</ele>
        <time>2021-09-04T14:38:48Z</time>
      </trkpt>
      <trkpt lat="46.51313" lon="4.51493">
        <ele>320.592</ele>
        <time>2021-09-04T14:38:53Z</time>
      </trkpt>
      <trkpt lat="46.51316" lon="4.51484">
        <ele>319.592</ele>
        <time>2021-09-04T14:38:59Z</time>
      </trkpt>
      <trkpt lat="46.51319" lon="4.51475">
        <ele>320.592</ele>
        <time>2021-09-04T14:39:05Z</time>
      </trkpt>
      <trkpt lat="46.51326" lon="4.5147">
        <ele>321.592</ele>
        <time>2021-09-04T14:39:15Z</time>
      </trkpt>
      <trkpt lat="46.51332" lon="4.51463">
        <ele>322.592</ele>
        <time>2021-09-04T14:39:20Z</time>
      </trkpt>
      <trkpt lat="46.51338" lon="4.51458">
        <ele>320.592</ele>
        <time>2021-09-04T14:39:25Z</time>
      </trkpt>
      <trkpt lat="46.51344" lon="4.51453">
        <ele>320.592</ele>
        <time>2021-09-04T14:39:31Z</time>
      </trkpt>
      <trkpt lat="46.51349" lon="4.51444">
        <ele>319.592</ele>
        <time>2021-09-04T14:39:39Z</time>
      </trkpt>
      <trkpt lat="46.51355" lon="4.5144">
        <ele>320.592</ele>
        <time>2021-09-04T14:39:44Z</time>
      </trkpt>
      <trkpt lat="46.5136" lon="4.5143">
        <ele>322.592</ele>
        <time>2021-09-04T14:39:50Z</time>
      </trkpt>
      <trkpt lat="46.51362" lon="4.51419">
        <ele>324.592</ele>
        <time>2021-09-04T14:39:55Z</time>
      </trkpt>
      <trkpt lat="46.51368" lon="4.51414">
        <ele>321.592</ele>
        <time>2021-09-04T14:40:02Z</time>
      </trkpt>
      <trkpt lat="46.51375" lon="4.51407">
        <ele>320.592</ele>
        <time>2021-09-04T14:40:08Z</time>
      </trkpt>
      <trkpt lat="46.5138" lon="4.51401">
        <ele>314.592</ele>
        <time>2021-09-04T14:40:24Z</time>
      </trkpt>
      <trkpt lat="46.51385" lon="4.51393">
        <ele>316.592</ele>
        <time>2021-09-04T14:40:30Z</time>
      </trkpt>
      <trkpt lat="46.51391" lon="4.51387">
        <ele>316.592</ele>
        <time>2021-09-04T14:40:36Z</time>
      </trkpt>
      <trkpt lat="46.51396" lon="4.51379">
        <ele>317.592</ele>
        <time>2021-09-04T14:40:41Z</time>
      </trkpt>
      <trkpt lat="46.51398" lon="4.5137">
        <ele>315.592</ele>
        <time>2021-09-04T14:40:47Z</time>
      </trkpt>
      <trkpt lat="46.51404" lon="4.51365">
        <ele>315.592</ele>
        <time>2021-09-04T14:40:52Z</time>
      </trkpt>
      <trkpt lat="46.5141" lon="4.51361">
        <ele>314.592</ele>
        <time>2021-09-04T14:40:59Z</time>
      </trkpt>
      <trkpt lat="46.51416" lon="4.51353">
        <ele>316.592</ele>
        <time>2021-09-04T14:41:05Z</time>
      </trkpt>
      <trkpt lat="46.5142" lon="4.51345">
        <ele>317.592</ele>
        <time>2021-09-04T14:41:11Z</time>
      </trkpt>
      <trkpt lat="46.51427" lon="4.51338">
        <ele>320.592</ele>
        <time>2021-09-04T14:41:16Z</time>
      </trkpt>
      <trkpt lat="46.5143" lon="4.51329">
        <ele>318.592</ele>
        <time>2021-09-04T14:41:24Z</time>
      </trkpt>
      <trkpt lat="46.51434" lon="4.51321">
        <ele>316.592</ele>
        <time>2021-09-04T14:41:31Z</time>
      </trkpt>
      <trkpt lat="46.51438" lon="4.51312">
        <ele>313.592</ele>
        <time>2021-09-04T14:41:38Z</time>
      </trkpt>
      <trkpt lat="46.51441" lon="4.51302">
        <ele>313.592</ele>
        <time>2021-09-04T14:41:44Z</time>
      </trkpt>
      <trkpt lat="46.51447" lon="4.51293">
        <ele>314.592</ele>
        <time>2021-09-04T14:41:52Z</time>
      </trkpt>
      <trkpt lat="46.5145" lon="4.51283">
        <ele>313.592</ele>
        <time>2021-09-04T14:41:58Z</time>
      </trkpt>
      <trkpt lat="46.5145" lon="4.51273">
        <ele>312.592</ele>
        <time>2021-09-04T14:42:03Z</time>
      </trkpt>
      <trkpt lat="46.51454" lon="4.51264">
        <ele>309.592</ele>
        <time>2021-09-04T14:42:10Z</time>
      </trkpt>
      <trkpt lat="46.51459" lon="4.51257">
        <ele>306.592</ele>
        <time>2021-09-04T14:42:16Z</time>
      </trkpt>
      <trkpt lat="46.51462" lon="4.51249">
        <ele>308.592</ele>
        <time>2021-09-04T14:42:21Z</time>
      </trkpt>
      <trkpt lat="46.51466" lon="4.5124">
        <ele>308.592</ele>
        <time>2021-09-04T14:42:26Z</time>
      </trkpt>
      <trkpt lat="46.5147" lon="4.51231">
        <ele>310.592</ele>
        <time>2021-09-04T14:42:31Z</time>
      </trkpt>
      <trkpt lat="46.51474" lon="4.51223">
        <ele>311.592</ele>
        <time>2021-09-04T14:42:36Z</time>
      </trkpt>
      <trkpt lat="46.51479" lon="4.51215">
        <ele>312.592</ele>
        <time>2021-09-04T14:42:42Z</time>
      </trkpt>
      <trkpt lat="46.51483" lon="4.51206">
        <ele>310.592</ele>
        <time>2021-09-04T14:42:48Z</time>
      </trkpt>
      <trkpt lat="46.51487" lon="4.51198">
        <ele>307.592</ele>
        <time>2021-09-04T14:42:57Z</time>
      </trkpt>
      <trkpt lat="46.51491" lon="4.5119">
        <ele>306.592</ele>
        <time>2021-09-04T14:43:03Z</time>
      </trkpt>
      <trkpt lat="46.51494" lon="4.5118">
        <ele>304.592</ele>
        <time>2021-09-04T14:43:10Z</time>
      </trkpt>
      <trkpt lat="46.51496" lon="4.51166">
        <ele>305.592</ele>
        <time>2021-09-04T14:43:15Z</time>
      </trkpt>
      <trkpt lat="46.51502" lon="4.51156">
        <ele>306.592</ele>
        <time>2021-09-04T14:43:21Z</time>
      </trkpt>
      <trkpt lat="46.51504" lon="4.51146">
        <ele>303.592</ele>
        <time>2021-09-04T14:43:27Z</time>
      </trkpt>
      <trkpt lat="46.51504" lon="4.51135">
        <ele>304.592</ele>
        <time>2021-09-04T14:43:32Z</time>
      </trkpt>
      <trkpt lat="46.51508" lon="4.51127">
        <ele>302.592</ele>
        <time>2021-09-04T14:43:38Z</time>
      </trkpt>
      <trkpt lat="46.51509" lon="4.51117">
        <ele>299.592</ele>
        <time>2021-09-04T14:43:44Z</time>
      </trkpt>
      <trkpt lat="46.51516" lon="4.51116">
        <ele>295.592</ele>
        <time>2021-09-04T14:43:56Z</time>
      </trkpt>
      <trkpt lat="46.51523" lon="4.51117">
        <ele>297.593</ele>
        <time>2021-09-04T14:44:10Z</time>
      </trkpt>
      <trkpt lat="46.51526" lon="4.51126">
        <ele>296.593</ele>
        <time>2021-09-04T14:44:38Z</time>
      </trkpt>
      <trkpt lat="46.51533" lon="4.51128">
        <ele>299.593</ele>
        <time>2021-09-04T14:45:04Z</time>
      </trkpt>
      <trkpt lat="46.51538" lon="4.51134">
        <ele>298.593</ele>
        <time>2021-09-04T14:46:33Z</time>
      </trkpt>
      <trkpt lat="46.51541" lon="4.51142">
        <ele>299.593</ele>
        <time>2021-09-04T14:46:38Z</time>
      </trkpt>
      <trkpt lat="46.51546" lon="4.51149">
        <ele>298.593</ele>
        <time>2021-09-04T14:46:43Z</time>
      </trkpt>
      <trkpt lat="46.51554" lon="4.51151">
        <ele>294.593</ele>
        <time>2021-09-04T14:46:49Z</time>
      </trkpt>
      <trkpt lat="46.5156" lon="4.51155">
        <ele>293.593</ele>
        <time>2021-09-04T14:46:57Z</time>
      </trkpt>
      <trkpt lat="46.51565" lon="4.51163">
        <ele>287.593</ele>
        <time>2021-09-04T14:47:09Z</time>
      </trkpt>
      <trkpt lat="46.5157" lon="4.5117">
        <ele>289.593</ele>
        <time>2021-09-04T14:47:14Z</time>
      </trkpt>
      <trkpt lat="46.51576" lon="4.51178">
        <ele>286.593</ele>
        <time>2021-09-04T14:47:19Z</time>
      </trkpt>
      <trkpt lat="46.51581" lon="4.51185">
        <ele>289.593</ele>
        <time>2021-09-04T14:47:26Z</time>
      </trkpt>
      <trkpt lat="46.51584" lon="4.51193">
        <ele>292.593</ele>
        <time>2021-09-04T14:47:36Z</time>
      </trkpt>
      <trkpt lat="46.51589" lon="4.512">
        <ele>294.593</ele>
        <time>2021-09-04T14:47:45Z</time>
      </trkpt>
      <trkpt lat="46.51596" lon="4.51211">
        <ele>294.593</ele>
        <time>2021-09-04T14:47:50Z</time>
      </trkpt>
      <trkpt lat="46.516" lon="4.51218">
        <ele>296.593</ele>
        <time>2021-09-04T14:47:56Z</time>
      </trkpt>
      <trkpt lat="46.51607" lon="4.51228">
        <ele>296.593</ele>
        <time>2021-09-04T14:48:02Z</time>
      </trkpt>
      <trkpt lat="46.51614" lon="4.51235">
        <ele>297.593</ele>
        <time>2021-09-04T14:48:07Z</time>
      </trkpt>
      <trkpt lat="46.5162" lon="4.51241">
        <ele>296.593</ele>
        <time>2021-09-04T14:48:13Z</time>
      </trkpt>
      <trkpt lat="46.51625" lon="4.51246">
        <ele>295.593</ele>
        <time>2021-09-04T14:48:19Z</time>
      </trkpt>
      <trkpt lat="46.51632" lon="4.51253">
        <ele>296.593</ele>
        <time>2021-09-04T14:48:25Z</time>
      </trkpt>
      <trkpt lat="46.51637" lon="4.51259">
        <ele>294.593</ele>
        <time>2021-09-04T14:48:33Z</time>
      </trkpt>
      <trkpt lat="46.51643" lon="4.51264">
        <ele>292.593</ele>
        <time>2021-09-04T14:48:39Z</time>
      </trkpt>
      <trkpt lat="46.51649" lon="4.5127">
        <ele>291.593</ele>
        <time>2021-09-04T14:48:44Z</time>
      </trkpt>
      <trkpt lat="46.51657" lon="4.51273">
        <ele>291.593</ele>
        <time>2021-09-04T14:48:49Z</time>
      </trkpt>
      <trkpt lat="46.5166" lon="4.51281">
        <ele>289.593</ele>
        <time>2021-09-04T14:48:54Z</time>
      </trkpt>
      <trkpt lat="46.51666" lon="4.51285">
        <ele>284.593</ele>
        <time>2021-09-04T14:49:01Z</time>
      </trkpt>
      <trkpt lat="46.51674" lon="4.51288">
        <ele>286.593</ele>
        <time>2021-09-04T14:49:07Z</time>
      </trkpt>
      <trkpt lat="46.51682" lon="4.51291">
        <ele>284.593</ele>
        <time>2021-09-04T14:49:16Z</time>
      </trkpt>
      <trkpt lat="46.5169" lon="4.51293">
        <ele>285.593</ele>
        <time>2021-09-04T14:49:22Z</time>
      </trkpt>
      <trkpt lat="46.51696" lon="4.51298">
        <ele>283.593</ele>
        <time>2021-09-04T14:49:29Z</time>
      </trkpt>
      <trkpt lat="46.51699" lon="4.51306">
        <ele>283.593</ele>
        <time>2021-09-04T14:49:35Z</time>
      </trkpt>
      <trkpt lat="46.51701" lon="4.51316">
        <ele>283.593</ele>
        <time>2021-09-04T14:49:40Z</time>
      </trkpt>
      <trkpt lat="46.51701" lon="4.51326">
        <ele>283.593</ele>
        <time>2021-09-04T14:49:45Z</time>
      </trkpt>
      <trkpt lat="46.51699" lon="4.51338">
        <ele>282.593</ele>
        <time>2021-09-04T14:49:51Z</time>
      </trkpt>
      <trkpt lat="46.51696" lon="4.51349">
        <ele>284.593</ele>
        <time>2021-09-04T14:49:56Z</time>
      </trkpt>
      <trkpt lat="46.51696" lon="4.51358">
        <ele>286.593</ele>
        <time>2021-09-04T14:50:04Z</time>
      </trkpt>
      <trkpt lat="46.51694" lon="4.51369">
        <ele>285.593</ele>
        <time>2021-09-04T14:50:10Z</time>
      </trkpt>
      <trkpt lat="46.51694" lon="4.51378">
        <ele>286.593</ele>
        <time>2021-09-04T14:50:16Z</time>
      </trkpt>
      <trkpt lat="46.51689" lon="4.51387">
        <ele>287.593</ele>
        <time>2021-09-04T14:50:23Z</time>
      </trkpt>
      <trkpt lat="46.51689" lon="4.51397">
        <ele>288.593</ele>
        <time>2021-09-04T14:50:29Z</time>
      </trkpt>
      <trkpt lat="46.5169" lon="4.51407">
        <ele>279.593</ele>
        <time>2021-09-04T14:52:08Z</time>
      </trkpt>
      <trkpt lat="46.51688" lon="4.51421">
        <ele>279.593</ele>
        <time>2021-09-04T14:52:15Z</time>
      </trkpt>
      <trkpt lat="46.51687" lon="4.5143">
        <ele>279.593</ele>
        <time>2021-09-04T14:52:20Z</time>
      </trkpt>
      <trkpt lat="46.51685" lon="4.5144">
        <ele>275.593</ele>
        <time>2021-09-04T14:52:28Z</time>
      </trkpt>
      <trkpt lat="46.51682" lon="4.5145">
        <ele>272.593</ele>
        <time>2021-09-04T14:52:35Z</time>
      </trkpt>
      <trkpt lat="46.51679" lon="4.51461">
        <ele>273.593</ele>
        <time>2021-09-04T14:52:40Z</time>
      </trkpt>
      <trkpt lat="46.51675" lon="4.51471">
        <ele>270.593</ele>
        <time>2021-09-04T14:52:48Z</time>
      </trkpt>
      <trkpt lat="46.5167" lon="4.51478">
        <ele>274.593</ele>
        <time>2021-09-04T14:52:54Z</time>
      </trkpt>
      <trkpt lat="46.51664" lon="4.51487">
        <ele>275.593</ele>
        <time>2021-09-04T14:53:00Z</time>
      </trkpt>
      <trkpt lat="46.51658" lon="4.51497">
        <ele>278.593</ele>
        <time>2021-09-04T14:53:05Z</time>
      </trkpt>
      <trkpt lat="46.51652" lon="4.51504">
        <ele>279.593</ele>
        <time>2021-09-04T14:53:11Z</time>
      </trkpt>
      <trkpt lat="46.51645" lon="4.51515">
        <ele>284.593</ele>
        <time>2021-09-04T14:53:16Z</time>
      </trkpt>
      <trkpt lat="46.51637" lon="4.51521">
        <ele>286.593</ele>
        <time>2021-09-04T14:53:21Z</time>
      </trkpt>
      <trkpt lat="46.51632" lon="4.51528">
        <ele>286.593</ele>
        <time>2021-09-04T14:53:26Z</time>
      </trkpt>
      <trkpt lat="46.51627" lon="4.51536">
        <ele>286.593</ele>
        <time>2021-09-04T14:53:34Z</time>
      </trkpt>
      <trkpt lat="46.51624" lon="4.51546">
        <ele>290.593</ele>
        <time>2021-09-04T14:53:40Z</time>
      </trkpt>
      <trkpt lat="46.51619" lon="4.51554">
        <ele>291.593</ele>
        <time>2021-09-04T14:53:45Z</time>
      </trkpt>
      <trkpt lat="46.51617" lon="4.51563">
        <ele>289.593</ele>
        <time>2021-09-04T14:53:50Z</time>
      </trkpt>
      <trkpt lat="46.51617" lon="4.51574">
        <ele>291.593</ele>
        <time>2021-09-04T14:53:55Z</time>
      </trkpt>
      <trkpt lat="46.51611" lon="4.51583">
        <ele>290.593</ele>
        <time>2021-09-04T14:54:00Z</time>
      </trkpt>
      <trkpt lat="46.51609" lon="4.51593">
        <ele>292.593</ele>
        <time>2021-09-04T14:54:07Z</time>
      </trkpt>
      <trkpt lat="46.51607" lon="4.51602">
        <ele>289.593</ele>
        <time>2021-09-04T14:54:14Z</time>
      </trkpt>
      <trkpt lat="46.51607" lon="4.51612">
        <ele>304.593</ele>
        <time>2021-09-04T14:54:20Z</time>
      </trkpt>
      <trkpt lat="46.5161" lon="4.51623">
        <ele>295.593</ele>
        <time>2021-09-04T14:54:25Z</time>
      </trkpt>
      <trkpt lat="46.51614" lon="4.51631">
        <ele>287.593</ele>
        <time>2021-09-04T14:54:32Z</time>
      </trkpt>
      <trkpt lat="46.51619" lon="4.51639">
        <ele>283.593</ele>
        <time>2021-09-04T14:54:38Z</time>
      </trkpt>
      <trkpt lat="46.51623" lon="4.51647">
        <ele>282.593</ele>
        <time>2021-09-04T14:54:45Z</time>
      </trkpt>
      <trkpt lat="46.5163" lon="4.51652">
        <ele>282.593</ele>
        <time>2021-09-04T14:54:51Z</time>
      </trkpt>
      <trkpt lat="46.51636" lon="4.51658">
        <ele>281.593</ele>
        <time>2021-09-04T14:54:57Z</time>
      </trkpt>
      <trkpt lat="46.51644" lon="4.51659">
        <ele>280.593</ele>
        <time>2021-09-04T14:55:03Z</time>
      </trkpt>
      <trkpt lat="46.51649" lon="4.51664">
        <ele>279.593</ele>
        <time>2021-09-04T14:55:09Z</time>
      </trkpt>
      <trkpt lat="46.51655" lon="4.51669">
        <ele>282.593</ele>
        <time>2021-09-04T14:55:17Z</time>
      </trkpt>
      <trkpt lat="46.51662" lon="4.51672">
        <ele>282.593</ele>
        <time>2021-09-04T14:55:22Z</time>
      </trkpt>
      <trkpt lat="46.51668" lon="4.51678">
        <ele>285.593</ele>
        <time>2021-09-04T14:55:31Z</time>
      </trkpt>
      <trkpt lat="46.51676" lon="4.51681">
        <ele>286.593</ele>
        <time>2021-09-04T14:55:37Z</time>
      </trkpt>
      <trkpt lat="46.51682" lon="4.51684">
        <ele>285.593</ele>
        <time>2021-09-04T14:55:42Z</time>
      </trkpt>
      <trkpt lat="46.51689" lon="4.51688">
        <ele>281.593</ele>
        <time>2021-09-04T14:55:51Z</time>
      </trkpt>
      <trkpt lat="46.51696" lon="4.5169">
        <ele>280.593</ele>
        <time>2021-09-04T14:55:57Z</time>
      </trkpt>
      <trkpt lat="46.51703" lon="4.51692">
        <ele>279.593</ele>
        <time>2021-09-04T14:56:04Z</time>
      </trkpt>
      <trkpt lat="46.51711" lon="4.51692">
        <ele>277.593</ele>
        <time>2021-09-04T14:56:09Z</time>
      </trkpt>
      <trkpt lat="46.51719" lon="4.51692">
        <ele>275.593</ele>
        <time>2021-09-04T14:56:16Z</time>
      </trkpt>
      <trkpt lat="46.51724" lon="4.51698">
        <ele>272.594</ele>
        <time>2021-09-04T14:56:22Z</time>
      </trkpt>
      <trkpt lat="46.51731" lon="4.51701">
        <ele>268.594</ele>
        <time>2021-09-04T14:56:29Z</time>
      </trkpt>
      <trkpt lat="46.51737" lon="4.51705">
        <ele>268.594</ele>
        <time>2021-09-04T14:56:36Z</time>
      </trkpt>
      <trkpt lat="46.51744" lon="4.51706">
        <ele>269.594</ele>
        <time>2021-09-04T14:56:43Z</time>
      </trkpt>
      <trkpt lat="46.51751" lon="4.51711">
        <ele>270.594</ele>
        <time>2021-09-04T14:56:53Z</time>
      </trkpt>
      <trkpt lat="46.51756" lon="4.51716">
        <ele>269.594</ele>
        <time>2021-09-04T14:56:59Z</time>
      </trkpt>
      <trkpt lat="46.51762" lon="4.51722">
        <ele>270.594</ele>
        <time>2021-09-04T14:57:06Z</time>
      </trkpt>
      <trkpt lat="46.51764" lon="4.51734">
        <ele>270.594</ele>
        <time>2021-09-04T14:57:13Z</time>
      </trkpt>
      <trkpt lat="46.5177" lon="4.5174">
        <ele>271.594</ele>
        <time>2021-09-04T14:57:19Z</time>
      </trkpt>
      <trkpt lat="46.51777" lon="4.51745">
        <ele>272.594</ele>
        <time>2021-09-04T14:57:25Z</time>
      </trkpt>
      <trkpt lat="46.51784" lon="4.51748">
        <ele>276.594</ele>
        <time>2021-09-04T14:57:30Z</time>
      </trkpt>
      <trkpt lat="46.51789" lon="4.51756">
        <ele>280.594</ele>
        <time>2021-09-04T14:57:38Z</time>
      </trkpt>
      <trkpt lat="46.51796" lon="4.51758">
        <ele>278.594</ele>
        <time>2021-09-04T14:57:43Z</time>
      </trkpt>
      <trkpt lat="46.51802" lon="4.51763">
        <ele>274.594</ele>
        <time>2021-09-04T14:57:50Z</time>
      </trkpt>
      <trkpt lat="46.51808" lon="4.51769">
        <ele>272.594</ele>
        <time>2021-09-04T14:57:59Z</time>
      </trkpt>
      <trkpt lat="46.51814" lon="4.51774">
        <ele>269.594</ele>
        <time>2021-09-04T14:58:06Z</time>
      </trkpt>
      <trkpt lat="46.5182" lon="4.51779">
        <ele>270.594</ele>
        <time>2021-09-04T14:58:12Z</time>
      </trkpt>
      <trkpt lat="46.51826" lon="4.51784">
        <ele>268.594</ele>
        <time>2021-09-04T14:58:18Z</time>
      </trkpt>
      <trkpt lat="46.51833" lon="4.5179">
        <ele>268.594</ele>
        <time>2021-09-04T14:58:25Z</time>
      </trkpt>
      <trkpt lat="46.5184" lon="4.51792">
        <ele>268.594</ele>
        <time>2021-09-04T14:58:31Z</time>
      </trkpt>
      <trkpt lat="46.51846" lon="4.51795">
        <ele>265.594</ele>
        <time>2021-09-04T14:58:39Z</time>
      </trkpt>
      <trkpt lat="46.51854" lon="4.51798">
        <ele>266.594</ele>
        <time>2021-09-04T14:58:45Z</time>
      </trkpt>
      <trkpt lat="46.51861" lon="4.518">
        <ele>263.594</ele>
        <time>2021-09-04T14:58:55Z</time>
      </trkpt>
      <trkpt lat="46.51869" lon="4.51798">
        <ele>267.594</ele>
        <time>2021-09-04T14:59:00Z</time>
      </trkpt>
      <trkpt lat="46.51875" lon="4.51803">
        <ele>264.594</ele>
        <time>2021-09-04T14:59:07Z</time>
      </trkpt>
      <trkpt lat="46.51882" lon="4.51808">
        <ele>262.594</ele>
        <time>2021-09-04T14:59:13Z</time>
      </trkpt>
      <trkpt lat="46.5189" lon="4.51804">
        <ele>262.594</ele>
        <time>2021-09-04T14:59:22Z</time>
      </trkpt>
      <trkpt lat="46.51897" lon="4.51805">
        <ele>264.594</ele>
        <time>2021-09-04T14:59:27Z</time>
      </trkpt>
      <trkpt lat="46.51904" lon="4.51807">
        <ele>259.594</ele>
        <time>2021-09-04T14:59:32Z</time>
      </trkpt>
      <trkpt lat="46.5191" lon="4.51813">
        <ele>259.594</ele>
        <time>2021-09-04T14:59:37Z</time>
      </trkpt>
      <trkpt lat="46.51916" lon="4.51814">
        <ele>259.594</ele>
        <time>2021-09-04T14:59:42Z</time>
      </trkpt>
      <trkpt lat="46.51923" lon="4.51817">
        <ele>259.594</ele>
        <time>2021-09-04T14:59:51Z</time>
      </trkpt>
      <trkpt lat="46.5193" lon="4.51812">
        <ele>258.594</ele>
        <time>2021-09-04T14:59:58Z</time>
      </trkpt>
      <trkpt lat="46.51941" lon="4.51811">
        <ele>260.594</ele>
        <time>2021-09-04T15:00:06Z</time>
      </trkpt>
      <trkpt lat="46.51948" lon="4.5181">
        <ele>258.594</ele>
        <time>2021-09-04T15:00:11Z</time>
      </trkpt>
      <trkpt lat="46.51954" lon="4.51804">
        <ele>255.594</ele>
        <time>2021-09-04T15:00:19Z</time>
      </trkpt>
      <trkpt lat="46.5196" lon="4.518">
        <ele>256.594</ele>
        <time>2021-09-04T15:00:24Z</time>
      </trkpt>
      <trkpt lat="46.51966" lon="4.51793">
        <ele>258.594</ele>
        <time>2021-09-04T15:00:30Z</time>
      </trkpt>
      <trkpt lat="46.51974" lon="4.51789">
        <ele>259.594</ele>
        <time>2021-09-04T15:00:35Z</time>
      </trkpt>
      <trkpt lat="46.51979" lon="4.51783">
        <ele>261.594</ele>
        <time>2021-09-04T15:00:41Z</time>
      </trkpt>
      <trkpt lat="46.51986" lon="4.51778">
        <ele>261.594</ele>
        <time>2021-09-04T15:00:46Z</time>
      </trkpt>
      <trkpt lat="46.51992" lon="4.51775">
        <ele>262.594</ele>
        <time>2021-09-04T15:00:52Z</time>
      </trkpt>
      <trkpt lat="46.51999" lon="4.51772">
        <ele>262.594</ele>
        <time>2021-09-04T15:00:57Z</time>
      </trkpt>
      <trkpt lat="46.52005" lon="4.51771">
        <ele>257.594</ele>
        <time>2021-09-04T15:01:13Z</time>
      </trkpt>
      <trkpt lat="46.52014" lon="4.51767">
        <ele>256.594</ele>
        <time>2021-09-04T15:01:22Z</time>
      </trkpt>
      <trkpt lat="46.52021" lon="4.51768">
        <ele>259.594</ele>
        <time>2021-09-04T15:01:29Z</time>
      </trkpt>
      <trkpt lat="46.52028" lon="4.51768">
        <ele>258.594</ele>
        <time>2021-09-04T15:01:35Z</time>
      </trkpt>
      <trkpt lat="46.52033" lon="4.51761">
        <ele>257.594</ele>
        <time>2021-09-04T15:01:41Z</time>
      </trkpt>
      <trkpt lat="46.52041" lon="4.51756">
        <ele>257.594</ele>
        <time>2021-09-04T15:01:48Z</time>
      </trkpt>
      <trkpt lat="46.52047" lon="4.51752">
        <ele>260.594</ele>
        <time>2021-09-04T15:01:54Z</time>
      </trkpt>
      <trkpt lat="46.52054" lon="4.51751">
        <ele>260.594</ele>
        <time>2021-09-04T15:02:00Z</time>
      </trkpt>
      <trkpt lat="46.52058" lon="4.51742">
        <ele>262.594</ele>
        <time>2021-09-04T15:02:10Z</time>
      </trkpt>
      <trkpt lat="46.52067" lon="4.51732">
        <ele>263.594</ele>
        <time>2021-09-04T15:02:16Z</time>
      </trkpt>
      <trkpt lat="46.52071" lon="4.51725">
        <ele>262.594</ele>
        <time>2021-09-04T15:02:23Z</time>
      </trkpt>
      <trkpt lat="46.5208" lon="4.5172">
        <ele>264.594</ele>
        <time>2021-09-04T15:02:43Z</time>
      </trkpt>
      <trkpt lat="46.52087" lon="4.51714">
        <ele>263.595</ele>
        <time>2021-09-04T15:02:48Z</time>
      </trkpt>
      <trkpt lat="46.52094" lon="4.51708">
        <ele>264.595</ele>
        <time>2021-09-04T15:02:53Z</time>
      </trkpt>
      <trkpt lat="46.52104" lon="4.51702">
        <ele>264.595</ele>
        <time>2021-09-04T15:02:58Z</time>
      </trkpt>
      <trkpt lat="46.52112" lon="4.51698">
        <ele>265.595</ele>
        <time>2021-09-04T15:03:03Z</time>
      </trkpt>
      <trkpt lat="46.52118" lon="4.51693">
        <ele>268.595</ele>
        <time>2021-09-04T15:03:10Z</time>
      </trkpt>
      <trkpt lat="46.52125" lon="4.51689">
        <ele>267.595</ele>
        <time>2021-09-04T15:03:19Z</time>
      </trkpt>
      <trkpt lat="46.5213" lon="4.51683">
        <ele>270.595</ele>
        <time>2021-09-04T15:03:25Z</time>
      </trkpt>
      <trkpt lat="46.52133" lon="4.51673">
        <ele>271.595</ele>
        <time>2021-09-04T15:03:33Z</time>
      </trkpt>
      <trkpt lat="46.52139" lon="4.51665">
        <ele>271.595</ele>
        <time>2021-09-04T15:03:38Z</time>
      </trkpt>
      <trkpt lat="46.52144" lon="4.51657">
        <ele>271.595</ele>
        <time>2021-09-04T15:03:44Z</time>
      </trkpt>
      <trkpt lat="46.52149" lon="4.5165">
        <ele>272.595</ele>
        <time>2021-09-04T15:03:50Z</time>
      </trkpt>
      <trkpt lat="46.52152" lon="4.51641">
        <ele>268.595</ele>
        <time>2021-09-04T15:03:59Z</time>
      </trkpt>
      <trkpt lat="46.52156" lon="4.51633">
        <ele>268.595</ele>
        <time>2021-09-04T15:04:05Z</time>
      </trkpt>
      <trkpt lat="46.52161" lon="4.51625">
        <ele>269.595</ele>
        <time>2021-09-04T15:04:10Z</time>
      </trkpt>
      <trkpt lat="46.52166" lon="4.51618">
        <ele>269.595</ele>
        <time>2021-09-04T15:04:15Z</time>
      </trkpt>
      <trkpt lat="46.52171" lon="4.51609">
        <ele>268.595</ele>
        <time>2021-09-04T15:04:20Z</time>
      </trkpt>
      <trkpt lat="46.52175" lon="4.51601">
        <ele>268.595</ele>
        <time>2021-09-04T15:04:26Z</time>
      </trkpt>
      <trkpt lat="46.52178" lon="4.51593">
        <ele>268.595</ele>
        <time>2021-09-04T15:04:33Z</time>
      </trkpt>
      <trkpt lat="46.52182" lon="4.51585">
        <ele>269.595</ele>
        <time>2021-09-04T15:04:39Z</time>
      </trkpt>
      <trkpt lat="46.52187" lon="4.51579">
        <ele>270.595</ele>
        <time>2021-09-04T15:04:44Z</time>
      </trkpt>
      <trkpt lat="46.52192" lon="4.51572">
        <ele>271.595</ele>
        <time>2021-09-04T15:04:50Z</time>
      </trkpt>
      <trkpt lat="46.52198" lon="4.51566">
        <ele>272.595</ele>
        <time>2021-09-04T15:04:57Z</time>
      </trkpt>
      <trkpt lat="46.52205" lon="4.51559">
        <ele>273.595</ele>
        <time>2021-09-04T15:05:02Z</time>
      </trkpt>
      <trkpt lat="46.52211" lon="4.51555">
        <ele>275.595</ele>
        <time>2021-09-04T15:05:08Z</time>
      </trkpt>
      <trkpt lat="46.52214" lon="4.51545">
        <ele>274.595</ele>
        <time>2021-09-04T15:05:15Z</time>
      </trkpt>
      <trkpt lat="46.52219" lon="4.51538">
        <ele>273.595</ele>
        <time>2021-09-04T15:05:21Z</time>
      </trkpt>
      <trkpt lat="46.52224" lon="4.5153">
        <ele>272.595</ele>
        <time>2021-09-04T15:05:29Z</time>
      </trkpt>
      <trkpt lat="46.52229" lon="4.51524">
        <ele>273.595</ele>
        <time>2021-09-04T15:05:38Z</time>
      </trkpt>
      <trkpt lat="46.52231" lon="4.51513">
        <ele>273.595</ele>
        <time>2021-09-04T15:05:45Z</time>
      </trkpt>
      <trkpt lat="46.52233" lon="4.51503">
        <ele>269.595</ele>
        <time>2021-09-04T15:05:57Z</time>
      </trkpt>
      <trkpt lat="46.52236" lon="4.51494">
        <ele>270.595</ele>
        <time>2021-09-04T15:06:19Z</time>
      </trkpt>
      <trkpt lat="46.5224" lon="4.51485">
        <ele>272.595</ele>
        <time>2021-09-04T15:08:06Z</time>
      </trkpt>
      <trkpt lat="46.52244" lon="4.51477">
        <ele>272.595</ele>
        <time>2021-09-04T15:08:11Z</time>
      </trkpt>
      <trkpt lat="46.52248" lon="4.51468">
        <ele>272.595</ele>
        <time>2021-09-04T15:08:16Z</time>
      </trkpt>
      <trkpt lat="46.52254" lon="4.51462">
        <ele>268.595</ele>
        <time>2021-09-04T15:08:21Z</time>
      </trkpt>
      <trkpt lat="46.5226" lon="4.51454">
        <ele>269.595</ele>
        <time>2021-09-04T15:08:26Z</time>
      </trkpt>
      <trkpt lat="46.5226" lon="4.51444">
        <ele>272.595</ele>
        <time>2021-09-04T15:08:33Z</time>
      </trkpt>
      <trkpt lat="46.52267" lon="4.51439">
        <ele>273.595</ele>
        <time>2021-09-04T15:08:38Z</time>
      </trkpt>
      <trkpt lat="46.52273" lon="4.51431">
        <ele>273.595</ele>
        <time>2021-09-04T15:08:48Z</time>
      </trkpt>
      <trkpt lat="46.52278" lon="4.51424">
        <ele>273.595</ele>
        <time>2021-09-04T15:08:53Z</time>
      </trkpt>
      <trkpt lat="46.52285" lon="4.5142">
        <ele>274.595</ele>
        <time>2021-09-04T15:08:58Z</time>
      </trkpt>
      <trkpt lat="46.5229" lon="4.51412">
        <ele>276.595</ele>
        <time>2021-09-04T15:09:04Z</time>
      </trkpt>
      <trkpt lat="46.52294" lon="4.51405">
        <ele>278.595</ele>
        <time>2021-09-04T15:09:10Z</time>
      </trkpt>
      <trkpt lat="46.523" lon="4.51396">
        <ele>280.595</ele>
        <time>2021-09-04T15:09:17Z</time>
      </trkpt>
      <trkpt lat="46.52303" lon="4.51388">
        <ele>281.595</ele>
        <time>2021-09-04T15:09:23Z</time>
      </trkpt>
      <trkpt lat="46.52309" lon="4.51384">
        <ele>282.595</ele>
        <time>2021-09-04T15:09:28Z</time>
      </trkpt>
      <trkpt lat="46.52316" lon="4.51378">
        <ele>284.595</ele>
        <time>2021-09-04T15:09:33Z</time>
      </trkpt>
      <trkpt lat="46.52321" lon="4.51371">
        <ele>288.595</ele>
        <time>2021-09-04T15:09:38Z</time>
      </trkpt>
      <trkpt lat="46.52328" lon="4.51366">
        <ele>288.595</ele>
        <time>2021-09-04T15:09:45Z</time>
      </trkpt>
      <trkpt lat="46.5233" lon="4.51356">
        <ele>287.595</ele>
        <time>2021-09-04T15:09:50Z</time>
      </trkpt>
      <trkpt lat="46.52334" lon="4.51348">
        <ele>287.595</ele>
        <time>2021-09-04T15:09:55Z</time>
      </trkpt>
      <trkpt lat="46.52336" lon="4.51339">
        <ele>280.595</ele>
        <time>2021-09-04T15:10:04Z</time>
      </trkpt>
      <trkpt lat="46.52341" lon="4.51333">
        <ele>280.595</ele>
        <time>2021-09-04T15:10:10Z</time>
      </trkpt>
      <trkpt lat="46.52349" lon="4.51328">
        <ele>277.595</ele>
        <time>2021-09-04T15:10:19Z</time>
      </trkpt>
      <trkpt lat="46.52355" lon="4.51322">
        <ele>277.595</ele>
        <time>2021-09-04T15:10:24Z</time>
      </trkpt>
      <trkpt lat="46.52362" lon="4.51315">
        <ele>278.595</ele>
        <time>2021-09-04T15:10:31Z</time>
      </trkpt>
      <trkpt lat="46.52366" lon="4.51308">
        <ele>282.595</ele>
        <time>2021-09-04T15:10:36Z</time>
      </trkpt>
      <trkpt lat="46.52371" lon="4.513">
        <ele>283.595</ele>
        <time>2021-09-04T15:10:41Z</time>
      </trkpt>
      <trkpt lat="46.52378" lon="4.51295">
        <ele>284.595</ele>
        <time>2021-09-04T15:10:46Z</time>
      </trkpt>
      <trkpt lat="46.52384" lon="4.51291">
        <ele>284.595</ele>
        <time>2021-09-04T15:10:55Z</time>
      </trkpt>
      <trkpt lat="46.52392" lon="4.51287">
        <ele>283.595</ele>
        <time>2021-09-04T15:11:04Z</time>
      </trkpt>
      <trkpt lat="46.52399" lon="4.51283">
        <ele>283.595</ele>
        <time>2021-09-04T15:11:10Z</time>
      </trkpt>
      <trkpt lat="46.52407" lon="4.51282">
        <ele>284.595</ele>
        <time>2021-09-04T15:11:16Z</time>
      </trkpt>
      <trkpt lat="46.52414" lon="4.5128">
        <ele>284.595</ele>
        <time>2021-09-04T15:11:21Z</time>
      </trkpt>
      <trkpt lat="46.52421" lon="4.51281">
        <ele>284.595</ele>
        <time>2021-09-04T15:11:26Z</time>
      </trkpt>
      <trkpt lat="46.52428" lon="4.51282">
        <ele>285.595</ele>
        <time>2021-09-04T15:11:41Z</time>
      </trkpt>
      <trkpt lat="46.52434" lon="4.51286">
        <ele>287.595</ele>
        <time>2021-09-04T15:12:33Z</time>
      </trkpt>
      <trkpt lat="46.52442" lon="4.51285">
        <ele>289.595</ele>
        <time>2021-09-04T15:12:38Z</time>
      </trkpt>
      <trkpt lat="46.52449" lon="4.5129">
        <ele>292.595</ele>
        <time>2021-09-04T15:12:45Z</time>
      </trkpt>
      <trkpt lat="46.52457" lon="4.51287">
        <ele>289.595</ele>
        <time>2021-09-04T15:12:50Z</time>
      </trkpt>
      <trkpt lat="46.52465" lon="4.51286">
        <ele>289.595</ele>
        <time>2021-09-04T15:12:58Z</time>
      </trkpt>
      <trkpt lat="46.52472" lon="4.51286">
        <ele>288.595</ele>
        <time>2021-09-04T15:13:07Z</time>
      </trkpt>
      <trkpt lat="46.52479" lon="4.51288">
        <ele>287.595</ele>
        <time>2021-09-04T15:13:17Z</time>
      </trkpt>
      <trkpt lat="46.52487" lon="4.51289">
        <ele>290.595</ele>
        <time>2021-09-04T15:13:22Z</time>
      </trkpt>
      <trkpt lat="46.52496" lon="4.51292">
        <ele>292.595</ele>
        <time>2021-09-04T15:13:27Z</time>
      </trkpt>
      <trkpt lat="46.52504" lon="4.51289">
        <ele>290.595</ele>
        <time>2021-09-04T15:13:36Z</time>
      </trkpt>
      <trkpt lat="46.5251" lon="4.51286">
        <ele>288.595</ele>
        <time>2021-09-04T15:13:42Z</time>
      </trkpt>
      <trkpt lat="46.52518" lon="4.51284">
        <ele>285.595</ele>
        <time>2021-09-04T15:13:50Z</time>
      </trkpt>
      <trkpt lat="46.52525" lon="4.51281">
        <ele>282.595</ele>
        <time>2021-09-04T15:13:57Z</time>
      </trkpt>
      <trkpt lat="46.52533" lon="4.51281">
        <ele>281.595</ele>
        <time>2021-09-04T15:14:03Z</time>
      </trkpt>
      <trkpt lat="46.52538" lon="4.51274">
        <ele>279.595</ele>
        <time>2021-09-04T15:14:10Z</time>
      </trkpt>
      <trkpt lat="46.52546" lon="4.51273">
        <ele>281.595</ele>
        <time>2021-09-04T15:14:16Z</time>
      </trkpt>
      <trkpt lat="46.52551" lon="4.51265">
        <ele>279.595</ele>
        <time>2021-09-04T15:14:28Z</time>
      </trkpt>
      <trkpt lat="46.52557" lon="4.51263">
        <ele>277.595</ele>
        <time>2021-09-04T15:14:34Z</time>
      </trkpt>
      <trkpt lat="46.52563" lon="4.51261">
        <ele>277.595</ele>
        <time>2021-09-04T15:14:50Z</time>
      </trkpt>
      <trkpt lat="46.5257" lon="4.51256">
        <ele>275.595</ele>
        <time>2021-09-04T15:14:55Z</time>
      </trkpt>
      <trkpt lat="46.52575" lon="4.5125">
        <ele>275.596</ele>
        <time>2021-09-04T15:15:01Z</time>
      </trkpt>
      <trkpt lat="46.52583" lon="4.51245">
        <ele>277.596</ele>
        <time>2021-09-04T15:15:07Z</time>
      </trkpt>
      <trkpt lat="46.52588" lon="4.51238">
        <ele>278.596</ele>
        <time>2021-09-04T15:15:13Z</time>
      </trkpt>
      <trkpt lat="46.52593" lon="4.51232">
        <ele>278.596</ele>
        <time>2021-09-04T15:15:20Z</time>
      </trkpt>
      <trkpt lat="46.52598" lon="4.51223">
        <ele>276.596</ele>
        <time>2021-09-04T15:15:27Z</time>
      </trkpt>
      <trkpt lat="46.52604" lon="4.51217">
        <ele>275.596</ele>
        <time>2021-09-04T15:15:34Z</time>
      </trkpt>
      <trkpt lat="46.5261" lon="4.51214">
        <ele>272.596</ele>
        <time>2021-09-04T15:15:41Z</time>
      </trkpt>
      <trkpt lat="46.52616" lon="4.51211">
        <ele>272.596</ele>
        <time>2021-09-04T15:15:46Z</time>
      </trkpt>
      <trkpt lat="46.52624" lon="4.51208">
        <ele>275.596</ele>
        <time>2021-09-04T15:15:51Z</time>
      </trkpt>
      <trkpt lat="46.5263" lon="4.51205">
        <ele>274.596</ele>
        <time>2021-09-04T15:15:57Z</time>
      </trkpt>
      <trkpt lat="46.52637" lon="4.51203">
        <ele>274.596</ele>
        <time>2021-09-04T15:16:04Z</time>
      </trkpt>
      <trkpt lat="46.52643" lon="4.51201">
        <ele>275.596</ele>
        <time>2021-09-04T15:16:10Z</time>
      </trkpt>
      <trkpt lat="46.52651" lon="4.512">
        <ele>272.596</ele>
        <time>2021-09-04T15:16:17Z</time>
      </trkpt>
      <trkpt lat="46.52661" lon="4.512">
        <ele>273.596</ele>
        <time>2021-09-04T15:16:22Z</time>
      </trkpt>
      <trkpt lat="46.52668" lon="4.512">
        <ele>273.596</ele>
        <time>2021-09-04T15:16:27Z</time>
      </trkpt>
      <trkpt lat="46.52675" lon="4.51198">
        <ele>271.596</ele>
        <time>2021-09-04T15:16:33Z</time>
      </trkpt>
      <trkpt lat="46.52681" lon="4.51195">
        <ele>270.596</ele>
        <time>2021-09-04T15:16:39Z</time>
      </trkpt>
      <trkpt lat="46.52688" lon="4.51193">
        <ele>270.596</ele>
        <time>2021-09-04T15:16:47Z</time>
      </trkpt>
      <trkpt lat="46.52696" lon="4.51189">
        <ele>269.596</ele>
        <time>2021-09-04T15:16:54Z</time>
      </trkpt>
      <trkpt lat="46.52702" lon="4.51187">
        <ele>269.596</ele>
        <time>2021-09-04T15:16:59Z</time>
      </trkpt>
      <trkpt lat="46.52709" lon="4.51186">
        <ele>267.596</ele>
        <time>2021-09-04T15:17:06Z</time>
      </trkpt>
      <trkpt lat="46.52716" lon="4.51185">
        <ele>264.596</ele>
        <time>2021-09-04T15:17:14Z</time>
      </trkpt>
      <trkpt lat="46.52723" lon="4.51185">
        <ele>265.596</ele>
        <time>2021-09-04T15:17:20Z</time>
      </trkpt>
      <trkpt lat="46.5273" lon="4.51182">
        <ele>266.596</ele>
        <time>2021-09-04T15:17:25Z</time>
      </trkpt>
      <trkpt lat="46.52739" lon="4.51178">
        <ele>266.596</ele>
        <time>2021-09-04T15:17:30Z</time>
      </trkpt>
      <trkpt lat="46.52745" lon="4.51174">
        <ele>264.596</ele>
        <time>2021-09-04T15:17:38Z</time>
      </trkpt>
      <trkpt lat="46.52752" lon="4.51168">
        <ele>268.596</ele>
        <time>2021-09-04T15:17:43Z</time>
      </trkpt>
      <trkpt lat="46.52759" lon="4.51164">
        <ele>267.596</ele>
        <time>2021-09-04T15:17:49Z</time>
      </trkpt>
      <trkpt lat="46.52765" lon="4.51156">
        <ele>265.596</ele>
        <time>2021-09-04T15:17:56Z</time>
      </trkpt>
      <trkpt lat="46.52771" lon="4.51152">
        <ele>263.596</ele>
        <time>2021-09-04T15:18:03Z</time>
      </trkpt>
      <trkpt lat="46.52778" lon="4.51149">
        <ele>262.596</ele>
        <time>2021-09-04T15:18:11Z</time>
      </trkpt>
      <trkpt lat="46.52785" lon="4.51147">
        <ele>263.596</ele>
        <time>2021-09-04T15:18:18Z</time>
      </trkpt>
      <trkpt lat="46.52795" lon="4.51145">
        <ele>265.596</ele>
        <time>2021-09-04T15:18:25Z</time>
      </trkpt>
      <trkpt lat="46.52804" lon="4.51143">
        <ele>264.596</ele>
        <time>2021-09-04T15:18:38Z</time>
      </trkpt>
      <trkpt lat="46.52814" lon="4.51142">
        <ele>271.596</ele>
        <time>2021-09-04T15:18:47Z</time>
      </trkpt>
      <trkpt lat="46.52821" lon="4.51137">
        <ele>273.596</ele>
        <time>2021-09-04T15:18:53Z</time>
      </trkpt>
      <trkpt lat="46.52828" lon="4.51135">
        <ele>273.596</ele>
        <time>2021-09-04T15:18:58Z</time>
      </trkpt>
      <trkpt lat="46.52836" lon="4.51132">
        <ele>275.596</ele>
        <time>2021-09-04T15:19:12Z</time>
      </trkpt>
      <trkpt lat="46.52846" lon="4.51128">
        <ele>277.596</ele>
        <time>2021-09-04T15:19:17Z</time>
      </trkpt>
      <trkpt lat="46.52852" lon="4.51123">
        <ele>278.596</ele>
        <time>2021-09-04T15:19:24Z</time>
      </trkpt>
      <trkpt lat="46.52859" lon="4.51119">
        <ele>277.596</ele>
        <time>2021-09-04T15:19:31Z</time>
      </trkpt>
      <trkpt lat="46.52865" lon="4.51112">
        <ele>275.596</ele>
        <time>2021-09-04T15:19:47Z</time>
      </trkpt>
      <trkpt lat="46.52871" lon="4.51109">
        <ele>275.596</ele>
        <time>2021-09-04T15:19:53Z</time>
      </trkpt>
      <trkpt lat="46.52878" lon="4.51108">
        <ele>277.596</ele>
        <time>2021-09-04T15:19:58Z</time>
      </trkpt>
      <trkpt lat="46.52884" lon="4.51103">
        <ele>280.596</ele>
        <time>2021-09-04T15:20:17Z</time>
      </trkpt>
      <trkpt lat="46.52889" lon="4.51097">
        <ele>279.596</ele>
        <time>2021-09-04T15:20:25Z</time>
      </trkpt>
      <trkpt lat="46.52897" lon="4.51097">
        <ele>277.596</ele>
        <time>2021-09-04T15:20:38Z</time>
      </trkpt>
      <trkpt lat="46.52906" lon="4.51094">
        <ele>275.596</ele>
        <time>2021-09-04T15:20:43Z</time>
      </trkpt>
      <trkpt lat="46.52912" lon="4.51088">
        <ele>277.596</ele>
        <time>2021-09-04T15:20:52Z</time>
      </trkpt>
      <trkpt lat="46.52918" lon="4.51084">
        <ele>276.596</ele>
        <time>2021-09-04T15:20:57Z</time>
      </trkpt>
      <trkpt lat="46.52925" lon="4.51079">
        <ele>279.596</ele>
        <time>2021-09-04T15:21:02Z</time>
      </trkpt>
      <trkpt lat="46.52931" lon="4.51075">
        <ele>280.596</ele>
        <time>2021-09-04T15:21:08Z</time>
      </trkpt>
      <trkpt lat="46.52938" lon="4.5107">
        <ele>284.596</ele>
        <time>2021-09-04T15:21:13Z</time>
      </trkpt>
      <trkpt lat="46.52945" lon="4.51067">
        <ele>285.596</ele>
        <time>2021-09-04T15:21:18Z</time>
      </trkpt>
      <trkpt lat="46.52952" lon="4.51064">
        <ele>280.596</ele>
        <time>2021-09-04T15:21:28Z</time>
      </trkpt>
      <trkpt lat="46.52958" lon="4.51061">
        <ele>282.596</ele>
        <time>2021-09-04T15:21:34Z</time>
      </trkpt>
      <trkpt lat="46.52965" lon="4.51058">
        <ele>281.596</ele>
        <time>2021-09-04T15:21:41Z</time>
      </trkpt>
      <trkpt lat="46.52971" lon="4.51052">
        <ele>281.596</ele>
        <time>2021-09-04T15:21:48Z</time>
      </trkpt>
      <trkpt lat="46.52977" lon="4.51048">
        <ele>282.596</ele>
        <time>2021-09-04T15:21:55Z</time>
      </trkpt>
      <trkpt lat="46.52985" lon="4.51046">
        <ele>282.596</ele>
        <time>2021-09-04T15:22:01Z</time>
      </trkpt>
      <trkpt lat="46.52993" lon="4.51043">
        <ele>286.596</ele>
        <time>2021-09-04T15:22:06Z</time>
      </trkpt>
      <trkpt lat="46.53" lon="4.5104">
        <ele>286.597</ele>
        <time>2021-09-04T15:22:14Z</time>
      </trkpt>
      <trkpt lat="46.53007" lon="4.51038">
        <ele>284.597</ele>
        <time>2021-09-04T15:22:22Z</time>
      </trkpt>
      <trkpt lat="46.53" lon="4.51036">
        <ele>283.597</ele>
        <time>2021-09-04T15:22:32Z</time>
      </trkpt>
      <trkpt lat="46.52994" lon="4.51033">
        <ele>286.596</ele>
        <time>2021-09-04T15:22:43Z</time>
      </trkpt>
      <trkpt lat="46.52996" lon="4.51043">
        <ele>286.597</ele>
        <time>2021-09-04T15:23:29Z</time>
      </trkpt>
      <trkpt lat="46.52998" lon="4.51055">
        <ele>287.597</ele>
        <time>2021-09-04T15:23:34Z</time>
      </trkpt>
      <trkpt lat="46.52999" lon="4.51065">
        <ele>286.597</ele>
        <time>2021-09-04T15:23:39Z</time>
      </trkpt>
      <trkpt lat="46.52999" lon="4.51076">
        <ele>287.597</ele>
        <time>2021-09-04T15:23:44Z</time>
      </trkpt>
      <trkpt lat="46.52997" lon="4.51085">
        <ele>288.597</ele>
        <time>2021-09-04T15:23:50Z</time>
      </trkpt>
      <trkpt lat="46.52996" lon="4.51096">
        <ele>286.597</ele>
        <time>2021-09-04T15:23:57Z</time>
      </trkpt>
      <trkpt lat="46.52997" lon="4.51106">
        <ele>285.597</ele>
        <time>2021-09-04T15:24:04Z</time>
      </trkpt>
      <trkpt lat="46.52998" lon="4.51116">
        <ele>288.597</ele>
        <time>2021-09-04T15:24:10Z</time>
      </trkpt>
      <trkpt lat="46.52999" lon="4.51127">
        <ele>288.597</ele>
        <time>2021-09-04T15:24:16Z</time>
      </trkpt>
      <trkpt lat="46.53001" lon="4.51136">
        <ele>289.597</ele>
        <time>2021-09-04T15:24:24Z</time>
      </trkpt>
      <trkpt lat="46.53" lon="4.51147">
        <ele>290.597</ele>
        <time>2021-09-04T15:24:29Z</time>
      </trkpt>
      <trkpt lat="46.52999" lon="4.51157">
        <ele>291.597</ele>
        <time>2021-09-04T15:24:34Z</time>
      </trkpt>
      <trkpt lat="46.53" lon="4.51168">
        <ele>288.597</ele>
        <time>2021-09-04T15:24:39Z</time>
      </trkpt>
      <trkpt lat="46.53003" lon="4.51176">
        <ele>289.597</ele>
        <time>2021-09-04T15:24:47Z</time>
      </trkpt>
      <trkpt lat="46.53003" lon="4.51186">
        <ele>289.597</ele>
        <time>2021-09-04T15:24:52Z</time>
      </trkpt>
      <trkpt lat="46.53004" lon="4.51195">
        <ele>287.597</ele>
        <time>2021-09-04T15:25:00Z</time>
      </trkpt>
      <trkpt lat="46.53006" lon="4.51205">
        <ele>286.597</ele>
        <time>2021-09-04T15:25:06Z</time>
      </trkpt>
      <trkpt lat="46.53007" lon="4.51216">
        <ele>287.597</ele>
        <time>2021-09-04T15:25:12Z</time>
      </trkpt>
      <trkpt lat="46.53008" lon="4.51225">
        <ele>287.597</ele>
        <time>2021-09-04T15:25:17Z</time>
      </trkpt>
      <trkpt lat="46.53008" lon="4.51235">
        <ele>290.597</ele>
        <time>2021-09-04T15:25:24Z</time>
      </trkpt>
      <trkpt lat="46.5301" lon="4.51244">
        <ele>286.597</ele>
        <time>2021-09-04T15:25:31Z</time>
      </trkpt>
      <trkpt lat="46.5301" lon="4.51254">
        <ele>289.597</ele>
        <time>2021-09-04T15:25:37Z</time>
      </trkpt>
      <trkpt lat="46.53009" lon="4.51264">
        <ele>288.597</ele>
        <time>2021-09-04T15:25:43Z</time>
      </trkpt>
      <trkpt lat="46.53008" lon="4.51275">
        <ele>289.597</ele>
        <time>2021-09-04T15:25:50Z</time>
      </trkpt>
      <trkpt lat="46.5301" lon="4.51284">
        <ele>290.597</ele>
        <time>2021-09-04T15:25:57Z</time>
      </trkpt>
      <trkpt lat="46.53013" lon="4.51294">
        <ele>282.597</ele>
        <time>2021-09-04T15:26:23Z</time>
      </trkpt>
      <trkpt lat="46.53013" lon="4.51307">
        <ele>281.597</ele>
        <time>2021-09-04T15:26:28Z</time>
      </trkpt>
      <trkpt lat="46.53019" lon="4.51315">
        <ele>280.597</ele>
        <time>2021-09-04T15:26:33Z</time>
      </trkpt>
      <trkpt lat="46.5302" lon="4.51325">
        <ele>283.597</ele>
        <time>2021-09-04T15:26:38Z</time>
      </trkpt>
      <trkpt lat="46.53021" lon="4.51334">
        <ele>285.597</ele>
        <time>2021-09-04T15:26:53Z</time>
      </trkpt>
      <trkpt lat="46.53021" lon="4.51344">
        <ele>282.597</ele>
        <time>2021-09-04T15:26:59Z</time>
      </trkpt>
      <trkpt lat="46.5302" lon="4.51354">
        <ele>282.597</ele>
        <time>2021-09-04T15:27:04Z</time>
      </trkpt>
      <trkpt lat="46.53017" lon="4.51364">
        <ele>282.597</ele>
        <time>2021-09-04T15:27:10Z</time>
      </trkpt>
      <trkpt lat="46.53018" lon="4.51374">
        <ele>282.597</ele>
        <time>2021-09-04T15:27:16Z</time>
      </trkpt>
      <trkpt lat="46.53016" lon="4.51385">
        <ele>280.597</ele>
        <time>2021-09-04T15:27:22Z</time>
      </trkpt>
      <trkpt lat="46.53015" lon="4.51395">
        <ele>279.597</ele>
        <time>2021-09-04T15:27:27Z</time>
      </trkpt>
      <trkpt lat="46.53017" lon="4.51405">
        <ele>278.597</ele>
        <time>2021-09-04T15:27:35Z</time>
      </trkpt>
      <trkpt lat="46.53019" lon="4.51414">
        <ele>280.597</ele>
        <time>2021-09-04T15:27:41Z</time>
      </trkpt>
      <trkpt lat="46.5302" lon="4.51423">
        <ele>281.597</ele>
        <time>2021-09-04T15:27:47Z</time>
      </trkpt>
      <trkpt lat="46.53021" lon="4.51433">
        <ele>278.597</ele>
        <time>2021-09-04T15:27:57Z</time>
      </trkpt>
      <trkpt lat="46.53022" lon="4.51443">
        <ele>277.597</ele>
        <time>2021-09-04T15:28:02Z</time>
      </trkpt>
      <trkpt lat="46.53024" lon="4.51453">
        <ele>281.597</ele>
        <time>2021-09-04T15:28:08Z</time>
      </trkpt>
      <trkpt lat="46.53024" lon="4.51464">
        <ele>284.597</ele>
        <time>2021-09-04T15:28:16Z</time>
      </trkpt>
      <trkpt lat="46.53023" lon="4.51475">
        <ele>284.597</ele>
        <time>2021-09-04T15:28:22Z</time>
      </trkpt>
      <trkpt lat="46.53025" lon="4.51484">
        <ele>284.597</ele>
        <time>2021-09-04T15:28:29Z</time>
      </trkpt>
      <trkpt lat="46.53025" lon="4.51496">
        <ele>281.597</ele>
        <time>2021-09-04T15:28:41Z</time>
      </trkpt>
      <trkpt lat="46.53024" lon="4.51506">
        <ele>282.597</ele>
        <time>2021-09-04T15:28:49Z</time>
      </trkpt>
      <trkpt lat="46.53024" lon="4.51517">
        <ele>285.597</ele>
        <time>2021-09-04T15:28:55Z</time>
      </trkpt>
      <trkpt lat="46.53024" lon="4.51526">
        <ele>283.597</ele>
        <time>2021-09-04T15:29:01Z</time>
      </trkpt>
      <trkpt lat="46.53024" lon="4.51539">
        <ele>286.597</ele>
        <time>2021-09-04T15:29:09Z</time>
      </trkpt>
      <trkpt lat="46.53024" lon="4.51549">
        <ele>288.597</ele>
        <time>2021-09-04T15:29:15Z</time>
      </trkpt>
      <trkpt lat="46.53026" lon="4.5156">
        <ele>288.597</ele>
        <time>2021-09-04T15:29:22Z</time>
      </trkpt>
      <trkpt lat="46.53031" lon="4.51566">
        <ele>282.597</ele>
        <time>2021-09-04T15:29:29Z</time>
      </trkpt>
      <trkpt lat="46.53033" lon="4.51576">
        <ele>281.597</ele>
        <time>2021-09-04T15:29:34Z</time>
      </trkpt>
      <trkpt lat="46.53038" lon="4.51582">
        <ele>281.597</ele>
        <time>2021-09-04T15:29:40Z</time>
      </trkpt>
      <trkpt lat="46.53042" lon="4.5159">
        <ele>280.597</ele>
        <time>2021-09-04T15:29:45Z</time>
      </trkpt>
      <trkpt lat="46.53048" lon="4.51595">
        <ele>279.597</ele>
        <time>2021-09-04T15:29:52Z</time>
      </trkpt>
      <trkpt lat="46.53052" lon="4.51611">
        <ele>280.597</ele>
        <time>2021-09-04T15:29:57Z</time>
      </trkpt>
      <trkpt lat="46.53055" lon="4.51621">
        <ele>277.597</ele>
        <time>2021-09-04T15:30:06Z</time>
      </trkpt>
      <trkpt lat="46.53056" lon="4.51631">
        <ele>273.597</ele>
        <time>2021-09-04T15:30:16Z</time>
      </trkpt>
      <trkpt lat="46.53058" lon="4.51642">
        <ele>271.597</ele>
        <time>2021-09-04T15:30:24Z</time>
      </trkpt>
      <trkpt lat="46.53058" lon="4.51652">
        <ele>269.597</ele>
        <time>2021-09-04T15:30:29Z</time>
      </trkpt>
      <trkpt lat="46.53062" lon="4.51661">
        <ele>271.597</ele>
        <time>2021-09-04T15:30:35Z</time>
      </trkpt>
      <trkpt lat="46.53061" lon="4.5167">
        <ele>273.597</ele>
        <time>2021-09-04T15:30:44Z</time>
      </trkpt>
      <trkpt lat="46.53068" lon="4.51682">
        <ele>271.597</ele>
        <time>2021-09-04T15:30:50Z</time>
      </trkpt>
      <trkpt lat="46.53071" lon="4.51691">
        <ele>268.597</ele>
        <time>2021-09-04T15:30:59Z</time>
      </trkpt>
      <trkpt lat="46.53074" lon="4.51699">
        <ele>265.597</ele>
        <time>2021-09-04T15:31:06Z</time>
      </trkpt>
      <trkpt lat="46.5308" lon="4.51709">
        <ele>259.597</ele>
        <time>2021-09-04T15:31:18Z</time>
      </trkpt>
      <trkpt lat="46.53082" lon="4.51723">
        <ele>262.597</ele>
        <time>2021-09-04T15:31:23Z</time>
      </trkpt>
      <trkpt lat="46.53085" lon="4.51733">
        <ele>260.597</ele>
        <time>2021-09-04T15:31:32Z</time>
      </trkpt>
      <trkpt lat="46.53087" lon="4.51743">
        <ele>261.597</ele>
        <time>2021-09-04T15:31:38Z</time>
      </trkpt>
      <trkpt lat="46.5309" lon="4.51754">
        <ele>263.597</ele>
        <time>2021-09-04T15:31:43Z</time>
      </trkpt>
      <trkpt lat="46.53096" lon="4.51761">
        <ele>265.597</ele>
        <time>2021-09-04T15:31:50Z</time>
      </trkpt>
      <trkpt lat="46.53099" lon="4.51771">
        <ele>262.597</ele>
        <time>2021-09-04T15:31:58Z</time>
      </trkpt>
      <trkpt lat="46.53103" lon="4.5178">
        <ele>260.597</ele>
        <time>2021-09-04T15:32:06Z</time>
      </trkpt>
      <trkpt lat="46.53106" lon="4.51788">
        <ele>262.597</ele>
        <time>2021-09-04T15:32:12Z</time>
      </trkpt>
      <trkpt lat="46.5311" lon="4.518">
        <ele>263.597</ele>
        <time>2021-09-04T15:32:19Z</time>
      </trkpt>
      <trkpt lat="46.53112" lon="4.51809">
        <ele>264.597</ele>
        <time>2021-09-04T15:32:25Z</time>
      </trkpt>
      <trkpt lat="46.53112" lon="4.51821">
        <ele>266.597</ele>
        <time>2021-09-04T15:32:30Z</time>
      </trkpt>
      <trkpt lat="46.53117" lon="4.51828">
        <ele>263.597</ele>
        <time>2021-09-04T15:33:17Z</time>
      </trkpt>
      <trkpt lat="46.53118" lon="4.51838">
        <ele>263.597</ele>
        <time>2021-09-04T15:33:25Z</time>
      </trkpt>
      <trkpt lat="46.5312" lon="4.51849">
        <ele>262.597</ele>
        <time>2021-09-04T15:33:31Z</time>
      </trkpt>
      <trkpt lat="46.53122" lon="4.51858">
        <ele>264.597</ele>
        <time>2021-09-04T15:33:36Z</time>
      </trkpt>
      <trkpt lat="46.53123" lon="4.51869">
        <ele>262.597</ele>
        <time>2021-09-04T15:33:42Z</time>
      </trkpt>
      <trkpt lat="46.53123" lon="4.51879">
        <ele>262.597</ele>
        <time>2021-09-04T15:33:48Z</time>
      </trkpt>
      <trkpt lat="46.53125" lon="4.51889">
        <ele>264.597</ele>
        <time>2021-09-04T15:33:53Z</time>
      </trkpt>
      <trkpt lat="46.53128" lon="4.51899">
        <ele>262.597</ele>
        <time>2021-09-04T15:33:59Z</time>
      </trkpt>
      <trkpt lat="46.5313" lon="4.51909">
        <ele>263.598</ele>
        <time>2021-09-04T15:34:08Z</time>
      </trkpt>
      <trkpt lat="46.53133" lon="4.5192">
        <ele>263.598</ele>
        <time>2021-09-04T15:34:16Z</time>
      </trkpt>
      <trkpt lat="46.53134" lon="4.5193">
        <ele>266.598</ele>
        <time>2021-09-04T15:34:21Z</time>
      </trkpt>
      <trkpt lat="46.53134" lon="4.5194">
        <ele>266.598</ele>
        <time>2021-09-04T15:34:31Z</time>
      </trkpt>
      <trkpt lat="46.53134" lon="4.5195">
        <ele>266.598</ele>
        <time>2021-09-04T15:34:36Z</time>
      </trkpt>
      <trkpt lat="46.53134" lon="4.51959">
        <ele>267.598</ele>
        <time>2021-09-04T15:34:42Z</time>
      </trkpt>
      <trkpt lat="46.53132" lon="4.5197">
        <ele>267.598</ele>
        <time>2021-09-04T15:34:48Z</time>
      </trkpt>
      <trkpt lat="46.53132" lon="4.51981">
        <ele>267.598</ele>
        <time>2021-09-04T15:34:56Z</time>
      </trkpt>
      <trkpt lat="46.53133" lon="4.51992">
        <ele>267.598</ele>
        <time>2021-09-04T15:35:03Z</time>
      </trkpt>
      <trkpt lat="46.53138" lon="4.51999">
        <ele>266.598</ele>
        <time>2021-09-04T15:35:10Z</time>
      </trkpt>
      <trkpt lat="46.53137" lon="4.52009">
        <ele>265.598</ele>
        <time>2021-09-04T15:35:16Z</time>
      </trkpt>
      <trkpt lat="46.5314" lon="4.52017">
        <ele>262.598</ele>
        <time>2021-09-04T15:35:25Z</time>
      </trkpt>
      <trkpt lat="46.53141" lon="4.52027">
        <ele>261.598</ele>
        <time>2021-09-04T15:35:31Z</time>
      </trkpt>
      <trkpt lat="46.53141" lon="4.52036">
        <ele>263.598</ele>
        <time>2021-09-04T15:35:37Z</time>
      </trkpt>
      <trkpt lat="46.5314" lon="4.52046">
        <ele>262.598</ele>
        <time>2021-09-04T15:35:43Z</time>
      </trkpt>
      <trkpt lat="46.53138" lon="4.52056">
        <ele>262.598</ele>
        <time>2021-09-04T15:35:48Z</time>
      </trkpt>
      <trkpt lat="46.53139" lon="4.52065">
        <ele>261.598</ele>
        <time>2021-09-04T15:35:55Z</time>
      </trkpt>
      <trkpt lat="46.53139" lon="4.52075">
        <ele>262.598</ele>
        <time>2021-09-04T15:36:01Z</time>
      </trkpt>
      <trkpt lat="46.53142" lon="4.52084">
        <ele>260.598</ele>
        <time>2021-09-04T15:36:18Z</time>
      </trkpt>
      <trkpt lat="46.53143" lon="4.52094">
        <ele>261.598</ele>
        <time>2021-09-04T15:36:23Z</time>
      </trkpt>
      <trkpt lat="46.53142" lon="4.52105">
        <ele>262.598</ele>
        <time>2021-09-04T15:36:29Z</time>
      </trkpt>
      <trkpt lat="46.5314" lon="4.52118">
        <ele>263.598</ele>
        <time>2021-09-04T15:36:35Z</time>
      </trkpt>
      <trkpt lat="46.53139" lon="4.52131">
        <ele>265.598</ele>
        <time>2021-09-04T15:36:41Z</time>
      </trkpt>
      <trkpt lat="46.53137" lon="4.52141">
        <ele>262.598</ele>
        <time>2021-09-04T15:36:46Z</time>
      </trkpt>
      <trkpt lat="46.53138" lon="4.52151">
        <ele>261.598</ele>
        <time>2021-09-04T15:36:54Z</time>
      </trkpt>
      <trkpt lat="46.53139" lon="4.5216">
        <ele>263.598</ele>
        <time>2021-09-04T15:36:59Z</time>
      </trkpt>
      <trkpt lat="46.53142" lon="4.52171">
        <ele>262.598</ele>
        <time>2021-09-04T15:37:06Z</time>
      </trkpt>
      <trkpt lat="46.53143" lon="4.52181">
        <ele>258.598</ele>
        <time>2021-09-04T15:37:11Z</time>
      </trkpt>
      <trkpt lat="46.53149" lon="4.52187">
        <ele>257.598</ele>
        <time>2021-09-04T15:37:22Z</time>
      </trkpt>
      <trkpt lat="46.53153" lon="4.52196">
        <ele>254.598</ele>
        <time>2021-09-04T15:37:29Z</time>
      </trkpt>
      <trkpt lat="46.53155" lon="4.52206">
        <ele>260.598</ele>
        <time>2021-09-04T15:37:39Z</time>
      </trkpt>
      <trkpt lat="46.53163" lon="4.52212">
        <ele>265.598</ele>
        <time>2021-09-04T15:37:44Z</time>
      </trkpt>
      <trkpt lat="46.53169" lon="4.52218">
        <ele>263.598</ele>
        <time>2021-09-04T15:37:50Z</time>
      </trkpt>
      <trkpt lat="46.53176" lon="4.52222">
        <ele>257.598</ele>
        <time>2021-09-04T15:37:58Z</time>
      </trkpt>
      <trkpt lat="46.53184" lon="4.52224">
        <ele>250.598</ele>
        <time>2021-09-04T15:38:03Z</time>
      </trkpt>
      <trkpt lat="46.53188" lon="4.52234">
        <ele>251.598</ele>
        <time>2021-09-04T15:38:08Z</time>
      </trkpt>
      <trkpt lat="46.53196" lon="4.52238">
        <ele>252.598</ele>
        <time>2021-09-04T15:38:18Z</time>
      </trkpt>
      <trkpt lat="46.53205" lon="4.52241">
        <ele>249.598</ele>
        <time>2021-09-04T15:38:23Z</time>
      </trkpt>
      <trkpt lat="46.53212" lon="4.52246">
        <ele>249.598</ele>
        <time>2021-09-04T15:38:29Z</time>
      </trkpt>
      <trkpt lat="46.53219" lon="4.52246">
        <ele>248.598</ele>
        <time>2021-09-04T15:38:34Z</time>
      </trkpt>
      <trkpt lat="46.53219" lon="4.52258">
        <ele>252.598</ele>
        <time>2021-09-04T15:38:43Z</time>
      </trkpt>
      <trkpt lat="46.5323" lon="4.52264">
        <ele>259.598</ele>
        <time>2021-09-04T15:38:48Z</time>
      </trkpt>
      <trkpt lat="46.53238" lon="4.52269">
        <ele>260.598</ele>
        <time>2021-09-04T15:38:53Z</time>
      </trkpt>
      <trkpt lat="46.53243" lon="4.52275">
        <ele>262.598</ele>
        <time>2021-09-04T15:39:03Z</time>
      </trkpt>
      <trkpt lat="46.53249" lon="4.52281">
        <ele>260.598</ele>
        <time>2021-09-04T15:39:10Z</time>
      </trkpt>
      <trkpt lat="46.53253" lon="4.52288">
        <ele>261.598</ele>
        <time>2021-09-04T15:39:17Z</time>
      </trkpt>
      <trkpt lat="46.5326" lon="4.52291">
        <ele>262.598</ele>
        <time>2021-09-04T15:39:22Z</time>
      </trkpt>
      <trkpt lat="46.53267" lon="4.52289">
        <ele>260.598</ele>
        <time>2021-09-04T15:39:27Z</time>
      </trkpt>
      <trkpt lat="46.53273" lon="4.52296">
        <ele>261.598</ele>
        <time>2021-09-04T15:39:34Z</time>
      </trkpt>
      <trkpt lat="46.53279" lon="4.52303">
        <ele>260.598</ele>
        <time>2021-09-04T15:39:42Z</time>
      </trkpt>
      <trkpt lat="46.53284" lon="4.5231">
        <ele>260.598</ele>
        <time>2021-09-04T15:39:50Z</time>
      </trkpt>
      <trkpt lat="46.53291" lon="4.52315">
        <ele>259.598</ele>
        <time>2021-09-04T15:39:55Z</time>
      </trkpt>
      <trkpt lat="46.53297" lon="4.52319">
        <ele>259.598</ele>
        <time>2021-09-04T15:40:00Z</time>
      </trkpt>
      <trkpt lat="46.533" lon="4.52327">
        <ele>258.598</ele>
        <time>2021-09-04T15:40:08Z</time>
      </trkpt>
      <trkpt lat="46.53303" lon="4.52336">
        <ele>257.598</ele>
        <time>2021-09-04T15:40:38Z</time>
      </trkpt>
      <trkpt lat="46.53305" lon="4.52347">
        <ele>256.598</ele>
        <time>2021-09-04T15:40:56Z</time>
      </trkpt>
      <trkpt lat="46.53307" lon="4.52357">
        <ele>257.598</ele>
        <time>2021-09-04T15:41:02Z</time>
      </trkpt>
      <trkpt lat="46.53305" lon="4.52367">
        <ele>257.598</ele>
        <time>2021-09-04T15:41:07Z</time>
      </trkpt>
      <trkpt lat="46.53302" lon="4.52381">
        <ele>258.598</ele>
        <time>2021-09-04T15:41:12Z</time>
      </trkpt>
      <trkpt lat="46.533" lon="4.52391">
        <ele>259.598</ele>
        <time>2021-09-04T15:41:17Z</time>
      </trkpt>
      <trkpt lat="46.53298" lon="4.52401">
        <ele>262.598</ele>
        <time>2021-09-04T15:41:22Z</time>
      </trkpt>
      <trkpt lat="46.53301" lon="4.52411">
        <ele>264.598</ele>
        <time>2021-09-04T15:41:32Z</time>
      </trkpt>
      <trkpt lat="46.53302" lon="4.52421">
        <ele>258.598</ele>
        <time>2021-09-04T15:41:42Z</time>
      </trkpt>
      <trkpt lat="46.53301" lon="4.52431">
        <ele>256.598</ele>
        <time>2021-09-04T15:41:53Z</time>
      </trkpt>
      <trkpt lat="46.53299" lon="4.52442">
        <ele>259.598</ele>
        <time>2021-09-04T15:42:00Z</time>
      </trkpt>
      <trkpt lat="46.53296" lon="4.52452">
        <ele>262.598</ele>
        <time>2021-09-04T15:42:07Z</time>
      </trkpt>
      <trkpt lat="46.53293" lon="4.5246">
        <ele>260.598</ele>
        <time>2021-09-04T15:42:14Z</time>
      </trkpt>
      <trkpt lat="46.53286" lon="4.52475">
        <ele>261.598</ele>
        <time>2021-09-04T15:42:19Z</time>
      </trkpt>
      <trkpt lat="46.53281" lon="4.52481">
        <ele>261.598</ele>
        <time>2021-09-04T15:42:26Z</time>
      </trkpt>
      <trkpt lat="46.53276" lon="4.52487">
        <ele>259.598</ele>
        <time>2021-09-04T15:42:31Z</time>
      </trkpt>
      <trkpt lat="46.5327" lon="4.52493">
        <ele>255.598</ele>
        <time>2021-09-04T15:42:36Z</time>
      </trkpt>
      <trkpt lat="46.53263" lon="4.525">
        <ele>255.598</ele>
        <time>2021-09-04T15:42:41Z</time>
      </trkpt>
      <trkpt lat="46.53258" lon="4.5251">
        <ele>253.598</ele>
        <time>2021-09-04T15:42:48Z</time>
      </trkpt>
      <trkpt lat="46.53252" lon="4.52515">
        <ele>252.598</ele>
        <time>2021-09-04T15:42:56Z</time>
      </trkpt>
      <trkpt lat="46.53248" lon="4.52523">
        <ele>251.598</ele>
        <time>2021-09-04T15:43:01Z</time>
      </trkpt>
      <trkpt lat="46.53242" lon="4.5253">
        <ele>247.598</ele>
        <time>2021-09-04T15:43:06Z</time>
      </trkpt>
      <trkpt lat="46.53235" lon="4.52535">
        <ele>248.598</ele>
        <time>2021-09-04T15:43:16Z</time>
      </trkpt>
      <trkpt lat="46.53231" lon="4.52544">
        <ele>251.598</ele>
        <time>2021-09-04T15:43:22Z</time>
      </trkpt>
      <trkpt lat="46.53229" lon="4.52553">
        <ele>253.598</ele>
        <time>2021-09-04T15:43:28Z</time>
      </trkpt>
      <trkpt lat="46.53228" lon="4.52566">
        <ele>256.598</ele>
        <time>2021-09-04T15:43:33Z</time>
      </trkpt>
      <trkpt lat="46.53229" lon="4.52576">
        <ele>253.598</ele>
        <time>2021-09-04T15:43:38Z</time>
      </trkpt>
      <trkpt lat="46.5323" lon="4.52588">
        <ele>253.598</ele>
        <time>2021-09-04T15:43:48Z</time>
      </trkpt>
      <trkpt lat="46.53231" lon="4.52599">
        <ele>253.598</ele>
        <time>2021-09-04T15:43:55Z</time>
      </trkpt>
      <trkpt lat="46.53229" lon="4.52608">
        <ele>254.598</ele>
        <time>2021-09-04T15:44:00Z</time>
      </trkpt>
      <trkpt lat="46.5323" lon="4.52619">
        <ele>258.598</ele>
        <time>2021-09-04T15:44:07Z</time>
      </trkpt>
      <trkpt lat="46.5323" lon="4.52629">
        <ele>255.598</ele>
        <time>2021-09-04T15:44:14Z</time>
      </trkpt>
      <trkpt lat="46.53231" lon="4.52638">
        <ele>252.598</ele>
        <time>2021-09-04T15:44:20Z</time>
      </trkpt>
      <trkpt lat="46.53228" lon="4.52654">
        <ele>256.598</ele>
        <time>2021-09-04T15:44:25Z</time>
      </trkpt>
      <trkpt lat="46.53234" lon="4.5266">
        <ele>258.598</ele>
        <time>2021-09-04T15:44:36Z</time>
      </trkpt>
      <trkpt lat="46.53232" lon="4.5267">
        <ele>259.598</ele>
        <time>2021-09-04T15:44:41Z</time>
      </trkpt>
      <trkpt lat="46.53233" lon="4.5268">
        <ele>256.598</ele>
        <time>2021-09-04T15:44:47Z</time>
      </trkpt>
      <trkpt lat="46.53232" lon="4.52691">
        <ele>255.598</ele>
        <time>2021-09-04T15:44:53Z</time>
      </trkpt>
      <trkpt lat="46.53231" lon="4.52701">
        <ele>254.598</ele>
        <time>2021-09-04T15:44:58Z</time>
      </trkpt>
      <trkpt lat="46.53228" lon="4.5271">
        <ele>253.598</ele>
        <time>2021-09-04T15:45:04Z</time>
      </trkpt>
      <trkpt lat="46.53226" lon="4.52719">
        <ele>252.598</ele>
        <time>2021-09-04T15:45:09Z</time>
      </trkpt>
      <trkpt lat="46.53223" lon="4.52729">
        <ele>252.598</ele>
        <time>2021-09-04T15:45:15Z</time>
      </trkpt>
      <trkpt lat="46.53219" lon="4.52738">
        <ele>251.598</ele>
        <time>2021-09-04T15:45:20Z</time>
      </trkpt>
      <trkpt lat="46.5322" lon="4.52747">
        <ele>250.598</ele>
        <time>2021-09-04T15:45:26Z</time>
      </trkpt>
      <trkpt lat="46.53226" lon="4.52751">
        <ele>250.598</ele>
        <time>2021-09-04T15:45:34Z</time>
      </trkpt>
      <trkpt lat="46.53231" lon="4.52758">
        <ele>251.598</ele>
        <time>2021-09-04T15:45:40Z</time>
      </trkpt>
      <trkpt lat="46.53237" lon="4.52763">
        <ele>252.598</ele>
        <time>2021-09-04T15:45:46Z</time>
      </trkpt>
      <trkpt lat="46.53244" lon="4.52768">
        <ele>253.598</ele>
        <time>2021-09-04T15:45:55Z</time>
      </trkpt>
      <trkpt lat="46.5325" lon="4.52772">
        <ele>252.598</ele>
        <time>2021-09-04T15:46:01Z</time>
      </trkpt>
      <trkpt lat="46.53257" lon="4.52778">
        <ele>256.598</ele>
        <time>2021-09-04T15:46:07Z</time>
      </trkpt>
      <trkpt lat="46.53263" lon="4.52782">
        <ele>256.599</ele>
        <time>2021-09-04T15:46:16Z</time>
      </trkpt>
      <trkpt lat="46.53269" lon="4.52789">
        <ele>254.599</ele>
        <time>2021-09-04T15:46:24Z</time>
      </trkpt>
      <trkpt lat="46.53277" lon="4.52795">
        <ele>256.599</ele>
        <time>2021-09-04T15:46:29Z</time>
      </trkpt>
      <trkpt lat="46.53283" lon="4.528">
        <ele>256.599</ele>
        <time>2021-09-04T15:46:35Z</time>
      </trkpt>
      <trkpt lat="46.53288" lon="4.52806">
        <ele>256.599</ele>
        <time>2021-09-04T15:46:42Z</time>
      </trkpt>
      <trkpt lat="46.53296" lon="4.52813">
        <ele>258.599</ele>
        <time>2021-09-04T15:46:47Z</time>
      </trkpt>
      <trkpt lat="46.53304" lon="4.52819">
        <ele>260.599</ele>
        <time>2021-09-04T15:46:52Z</time>
      </trkpt>
      <trkpt lat="46.53311" lon="4.52823">
        <ele>262.599</ele>
        <time>2021-09-04T15:46:57Z</time>
      </trkpt>
      <trkpt lat="46.53315" lon="4.52831">
        <ele>263.599</ele>
        <time>2021-09-04T15:47:03Z</time>
      </trkpt>
      <trkpt lat="46.53324" lon="4.52836">
        <ele>264.599</ele>
        <time>2021-09-04T15:47:08Z</time>
      </trkpt>
      <trkpt lat="46.53329" lon="4.52842">
        <ele>259.599</ele>
        <time>2021-09-04T15:47:16Z</time>
      </trkpt>
      <trkpt lat="46.53336" lon="4.52846">
        <ele>258.599</ele>
        <time>2021-09-04T15:47:23Z</time>
      </trkpt>
      <trkpt lat="46.53341" lon="4.52857">
        <ele>261.599</ele>
        <time>2021-09-04T15:47:28Z</time>
      </trkpt>
      <trkpt lat="46.53344" lon="4.52865">
        <ele>259.599</ele>
        <time>2021-09-04T15:47:37Z</time>
      </trkpt>
      <trkpt lat="46.53345" lon="4.52876">
        <ele>260.599</ele>
        <time>2021-09-04T15:47:42Z</time>
      </trkpt>
      <trkpt lat="46.53347" lon="4.52887">
        <ele>258.599</ele>
        <time>2021-09-04T15:47:47Z</time>
      </trkpt>
      <trkpt lat="46.5335" lon="4.52895">
        <ele>261.599</ele>
        <time>2021-09-04T15:47:53Z</time>
      </trkpt>
      <trkpt lat="46.53354" lon="4.52903">
        <ele>262.599</ele>
        <time>2021-09-04T15:48:00Z</time>
      </trkpt>
      <trkpt lat="46.53353" lon="4.52918">
        <ele>261.599</ele>
        <time>2021-09-04T15:48:05Z</time>
      </trkpt>
      <trkpt lat="46.53359" lon="4.52926">
        <ele>260.599</ele>
        <time>2021-09-04T15:48:14Z</time>
      </trkpt>
      <trkpt lat="46.53361" lon="4.52937">
        <ele>260.599</ele>
        <time>2021-09-04T15:48:19Z</time>
      </trkpt>
      <trkpt lat="46.53365" lon="4.52946">
        <ele>262.599</ele>
        <time>2021-09-04T15:48:24Z</time>
      </trkpt>
      <trkpt lat="46.53371" lon="4.52953">
        <ele>261.599</ele>
        <time>2021-09-04T15:48:29Z</time>
      </trkpt>
      <trkpt lat="46.53377" lon="4.52957">
        <ele>256.599</ele>
        <time>2021-09-04T15:48:36Z</time>
      </trkpt>
      <trkpt lat="46.53379" lon="4.52966">
        <ele>257.599</ele>
        <time>2021-09-04T15:48:41Z</time>
      </trkpt>
      <trkpt lat="46.5338" lon="4.52976">
        <ele>257.599</ele>
        <time>2021-09-04T15:48:46Z</time>
      </trkpt>
      <trkpt lat="46.53386" lon="4.52984">
        <ele>259.599</ele>
        <time>2021-09-04T15:48:52Z</time>
      </trkpt>
      <trkpt lat="46.53387" lon="4.52995">
        <ele>260.599</ele>
        <time>2021-09-04T15:48:57Z</time>
      </trkpt>
      <trkpt lat="46.53388" lon="4.53006">
        <ele>256.599</ele>
        <time>2021-09-04T15:49:06Z</time>
      </trkpt>
      <trkpt lat="46.53393" lon="4.53016">
        <ele>258.599</ele>
        <time>2021-09-04T15:49:13Z</time>
      </trkpt>
      <trkpt lat="46.53397" lon="4.53025">
        <ele>255.599</ele>
        <time>2021-09-04T15:49:22Z</time>
      </trkpt>
      <trkpt lat="46.53398" lon="4.53036">
        <ele>254.599</ele>
        <time>2021-09-04T15:49:27Z</time>
      </trkpt>
      <trkpt lat="46.53398" lon="4.53047">
        <ele>256.599</ele>
        <time>2021-09-04T15:49:33Z</time>
      </trkpt>
      <trkpt lat="46.53401" lon="4.53056">
        <ele>255.599</ele>
        <time>2021-09-04T15:49:39Z</time>
      </trkpt>
      <trkpt lat="46.53403" lon="4.53064">
        <ele>253.599</ele>
        <time>2021-09-04T15:49:45Z</time>
      </trkpt>
      <trkpt lat="46.53406" lon="4.53074">
        <ele>253.599</ele>
        <time>2021-09-04T15:49:50Z</time>
      </trkpt>
      <trkpt lat="46.53406" lon="4.53086">
        <ele>253.599</ele>
        <time>2021-09-04T15:49:55Z</time>
      </trkpt>
      <trkpt lat="46.53407" lon="4.53096">
        <ele>254.599</ele>
        <time>2021-09-04T15:50:01Z</time>
      </trkpt>
      <trkpt lat="46.53405" lon="4.53106">
        <ele>255.599</ele>
        <time>2021-09-04T15:50:06Z</time>
      </trkpt>
      <trkpt lat="46.53406" lon="4.53116">
        <ele>255.599</ele>
        <time>2021-09-04T15:50:12Z</time>
      </trkpt>
      <trkpt lat="46.53406" lon="4.53127">
        <ele>254.599</ele>
        <time>2021-09-04T15:50:21Z</time>
      </trkpt>
      <trkpt lat="46.53412" lon="4.53132">
        <ele>249.599</ele>
        <time>2021-09-04T15:50:35Z</time>
      </trkpt>
      <trkpt lat="46.53417" lon="4.53138">
        <ele>246.599</ele>
        <time>2021-09-04T15:50:42Z</time>
      </trkpt>
      <trkpt lat="46.53425" lon="4.53145">
        <ele>249.599</ele>
        <time>2021-09-04T15:50:48Z</time>
      </trkpt>
      <trkpt lat="46.5343" lon="4.53151">
        <ele>251.599</ele>
        <time>2021-09-04T15:52:00Z</time>
      </trkpt>
      <trkpt lat="46.53436" lon="4.53156">
        <ele>247.599</ele>
        <time>2021-09-04T15:52:07Z</time>
      </trkpt>
      <trkpt lat="46.53443" lon="4.53159">
        <ele>246.599</ele>
        <time>2021-09-04T15:52:14Z</time>
      </trkpt>
      <trkpt lat="46.5345" lon="4.53156">
        <ele>244.599</ele>
        <time>2021-09-04T15:52:19Z</time>
      </trkpt>
      <trkpt lat="46.53456" lon="4.53162">
        <ele>244.599</ele>
        <time>2021-09-04T15:52:25Z</time>
      </trkpt>
      <trkpt lat="46.53462" lon="4.53167">
        <ele>245.599</ele>
        <time>2021-09-04T15:52:31Z</time>
      </trkpt>
      <trkpt lat="46.53468" lon="4.5317">
        <ele>244.599</ele>
        <time>2021-09-04T15:52:40Z</time>
      </trkpt>
      <trkpt lat="46.53477" lon="4.53167">
        <ele>242.599</ele>
        <time>2021-09-04T15:52:45Z</time>
      </trkpt>
      <trkpt lat="46.53484" lon="4.53172">
        <ele>244.599</ele>
        <time>2021-09-04T15:52:50Z</time>
      </trkpt>
      <trkpt lat="46.5349" lon="4.53176">
        <ele>244.599</ele>
        <time>2021-09-04T15:53:00Z</time>
      </trkpt>
      <trkpt lat="46.53496" lon="4.53182">
        <ele>246.599</ele>
        <time>2021-09-04T15:53:06Z</time>
      </trkpt>
      <trkpt lat="46.53502" lon="4.53181">
        <ele>241.599</ele>
        <time>2021-09-04T15:53:13Z</time>
      </trkpt>
      <trkpt lat="46.53509" lon="4.53185">
        <ele>240.599</ele>
        <time>2021-09-04T15:53:19Z</time>
      </trkpt>
      <trkpt lat="46.53516" lon="4.5319">
        <ele>242.6</ele>
        <time>2021-09-04T15:53:24Z</time>
      </trkpt>
      <trkpt lat="46.53522" lon="4.53194">
        <ele>241.6</ele>
        <time>2021-09-04T15:53:30Z</time>
      </trkpt>
      <trkpt lat="46.53528" lon="4.532">
        <ele>238.6</ele>
        <time>2021-09-04T15:53:37Z</time>
      </trkpt>
      <trkpt lat="46.53534" lon="4.53208">
        <ele>236.6</ele>
        <time>2021-09-04T15:53:44Z</time>
      </trkpt>
      <trkpt lat="46.53541" lon="4.53214">
        <ele>239.6</ele>
        <time>2021-09-04T15:53:52Z</time>
      </trkpt>
      <trkpt lat="46.53547" lon="4.53222">
        <ele>241.6</ele>
        <time>2021-09-04T15:53:57Z</time>
      </trkpt>
      <trkpt lat="46.53553" lon="4.53226">
        <ele>244.6</ele>
        <time>2021-09-04T15:54:02Z</time>
      </trkpt>
      <trkpt lat="46.5356" lon="4.53232">
        <ele>242.6</ele>
        <time>2021-09-04T15:54:09Z</time>
      </trkpt>
      <trkpt lat="46.53566" lon="4.53236">
        <ele>244.6</ele>
        <time>2021-09-04T15:54:15Z</time>
      </trkpt>
      <trkpt lat="46.53572" lon="4.53242">
        <ele>243.6</ele>
        <time>2021-09-04T15:54:21Z</time>
      </trkpt>
      <trkpt lat="46.53578" lon="4.53249">
        <ele>244.6</ele>
        <time>2021-09-04T15:54:27Z</time>
      </trkpt>
      <trkpt lat="46.53585" lon="4.53251">
        <ele>242.6</ele>
        <time>2021-09-04T15:54:33Z</time>
      </trkpt>
      <trkpt lat="46.53591" lon="4.53255">
        <ele>242.6</ele>
        <time>2021-09-04T15:54:40Z</time>
      </trkpt>
      <trkpt lat="46.53596" lon="4.5326">
        <ele>241.6</ele>
        <time>2021-09-04T15:54:46Z</time>
      </trkpt>
      <trkpt lat="46.53602" lon="4.53269">
        <ele>245.6</ele>
        <time>2021-09-04T15:54:51Z</time>
      </trkpt>
      <trkpt lat="46.53609" lon="4.53271">
        <ele>242.6</ele>
        <time>2021-09-04T15:54:57Z</time>
      </trkpt>
      <trkpt lat="46.53617" lon="4.53276">
        <ele>245.6</ele>
        <time>2021-09-04T15:55:02Z</time>
      </trkpt>
      <trkpt lat="46.53623" lon="4.53282">
        <ele>246.6</ele>
        <time>2021-09-04T15:55:07Z</time>
      </trkpt>
      <trkpt lat="46.5363" lon="4.53284">
        <ele>246.6</ele>
        <time>2021-09-04T15:55:14Z</time>
      </trkpt>
      <trkpt lat="46.53636" lon="4.53288">
        <ele>247.6</ele>
        <time>2021-09-04T15:55:19Z</time>
      </trkpt>
      <trkpt lat="46.53642" lon="4.53296">
        <ele>250.6</ele>
        <time>2021-09-04T15:55:25Z</time>
      </trkpt>
      <trkpt lat="46.53648" lon="4.53299">
        <ele>248.6</ele>
        <time>2021-09-04T15:55:32Z</time>
      </trkpt>
      <trkpt lat="46.53656" lon="4.53302">
        <ele>244.6</ele>
        <time>2021-09-04T15:55:38Z</time>
      </trkpt>
      <trkpt lat="46.53661" lon="4.53307">
        <ele>245.6</ele>
        <time>2021-09-04T15:55:44Z</time>
      </trkpt>
      <trkpt lat="46.53667" lon="4.53311">
        <ele>244.6</ele>
        <time>2021-09-04T15:55:50Z</time>
      </trkpt>
      <trkpt lat="46.53673" lon="4.53317">
        <ele>245.6</ele>
        <time>2021-09-04T15:55:55Z</time>
      </trkpt>
      <trkpt lat="46.53682" lon="4.53321">
        <ele>244.6</ele>
        <time>2021-09-04T15:56:01Z</time>
      </trkpt>
      <trkpt lat="46.53688" lon="4.53324">
        <ele>244.6</ele>
        <time>2021-09-04T15:56:10Z</time>
      </trkpt>
      <trkpt lat="46.53695" lon="4.53322">
        <ele>242.6</ele>
        <time>2021-09-04T15:56:21Z</time>
      </trkpt>
      <trkpt lat="46.53706" lon="4.53325">
        <ele>243.6</ele>
        <time>2021-09-04T15:56:34Z</time>
      </trkpt>
      <trkpt lat="46.53717" lon="4.53325">
        <ele>243.6</ele>
        <time>2021-09-04T15:56:39Z</time>
      </trkpt>
      <trkpt lat="46.53727" lon="4.53326">
        <ele>244.6</ele>
        <time>2021-09-04T15:56:44Z</time>
      </trkpt>
      <trkpt lat="46.53735" lon="4.53325">
        <ele>243.6</ele>
        <time>2021-09-04T15:56:53Z</time>
      </trkpt>
      <trkpt lat="46.53742" lon="4.53321">
        <ele>244.6</ele>
        <time>2021-09-04T15:56:59Z</time>
      </trkpt>
      <trkpt lat="46.5375" lon="4.53318">
        <ele>241.6</ele>
        <time>2021-09-04T15:57:06Z</time>
      </trkpt>
      <trkpt lat="46.53757" lon="4.53319">
        <ele>242.6</ele>
        <time>2021-09-04T15:57:11Z</time>
      </trkpt>
      <trkpt lat="46.53763" lon="4.53324">
        <ele>242.6</ele>
        <time>2021-09-04T15:57:18Z</time>
      </trkpt>
      <trkpt lat="46.53769" lon="4.53331">
        <ele>240.6</ele>
        <time>2021-09-04T15:57:25Z</time>
      </trkpt>
      <trkpt lat="46.5377" lon="4.53342">
        <ele>241.6</ele>
        <time>2021-09-04T15:57:31Z</time>
      </trkpt>
      <trkpt lat="46.53773" lon="4.53351">
        <ele>241.6</ele>
        <time>2021-09-04T15:57:38Z</time>
      </trkpt>
      <trkpt lat="46.53776" lon="4.53359">
        <ele>240.6</ele>
        <time>2021-09-04T15:57:46Z</time>
      </trkpt>
      <trkpt lat="46.53779" lon="4.53369">
        <ele>239.6</ele>
        <time>2021-09-04T15:57:53Z</time>
      </trkpt>
    </trkseg>
  </trk>
</gpx>